<?xml version="1.0" encoding="UTF-8" standalone="no" ?>
<gpx xmlns="http://www.topografix.com/GPX/1/1" xmlns:xsi="http://www.w3.org/2001/XMLSchema-instance" xsi:schemaLocation="http://www.topografix.com/GPX/1/1 http://www.topografix.com/GPX/1/1/gpx.xsd" version="1.1" creator="VisuGPX - https://www.visugpx.com">
  <metadata>
    <name>Entre Pernes les Fontaines et La Roque </name>
    <desc><![CDATA[Parcours ludique et sportif sans grande difficulté  ]]></desc>
  </metadata>
  <trk>
    <name><![CDATA[ACTIVE LOG 002]]></name>
    <trkseg>
      <trkpt lat="43.99046" lon="5.05616">
        <ele>102.5177002</ele>
        <time>2016-01-23T08:03:21Z</time>
      </trkpt>
      <trkpt lat="43.99048" lon="5.05614">
        <ele>102.998291</ele>
        <time>2016-01-23T08:03:46Z</time>
      </trkpt>
      <trkpt lat="43.99049" lon="5.05611">
        <ele>103.4790039</ele>
        <time>2016-01-23T08:03:57Z</time>
      </trkpt>
      <trkpt lat="43.99049" lon="5.05613">
        <ele>103.4790039</ele>
        <time>2016-01-23T08:05:15Z</time>
      </trkpt>
      <trkpt lat="43.99048" lon="5.05613">
        <ele>103.4790039</ele>
        <time>2016-01-23T08:05:19Z</time>
      </trkpt>
      <trkpt lat="43.99022" lon="5.05617">
        <ele>102.0371094</ele>
        <time>2016-01-23T08:05:33Z</time>
      </trkpt>
      <trkpt lat="43.99015" lon="5.05615">
        <ele>101.5563965</ele>
        <time>2016-01-23T08:05:36Z</time>
      </trkpt>
      <trkpt lat="43.99011" lon="5.05598">
        <ele>102.0371094</ele>
        <time>2016-01-23T08:05:41Z</time>
      </trkpt>
      <trkpt lat="43.98993" lon="5.05577">
        <ele>101.5563965</ele>
        <time>2016-01-23T08:05:53Z</time>
      </trkpt>
      <trkpt lat="43.98953" lon="5.05572">
        <ele>102.0371094</ele>
        <time>2016-01-23T08:06:05Z</time>
      </trkpt>
      <trkpt lat="43.9891" lon="5.05551">
        <ele>101.0756836</ele>
        <time>2016-01-23T08:06:18Z</time>
      </trkpt>
      <trkpt lat="43.9887" lon="5.05523">
        <ele>99.6337891</ele>
        <time>2016-01-23T08:06:29Z</time>
      </trkpt>
      <trkpt lat="43.98856" lon="5.05517">
        <ele>98.6724854</ele>
        <time>2016-01-23T08:06:32Z</time>
      </trkpt>
      <trkpt lat="43.98826" lon="5.05526">
        <ele>97.2304688</ele>
        <time>2016-01-23T08:06:38Z</time>
      </trkpt>
      <trkpt lat="43.98811" lon="5.05546">
        <ele>96.2692871</ele>
        <time>2016-01-23T08:06:42Z</time>
      </trkpt>
      <trkpt lat="43.98785" lon="5.05587">
        <ele>95.3077393</ele>
        <time>2016-01-23T08:06:51Z</time>
      </trkpt>
      <trkpt lat="43.98766" lon="5.05612">
        <ele>94.8271484</ele>
        <time>2016-01-23T08:06:57Z</time>
      </trkpt>
      <trkpt lat="43.98749" lon="5.0563">
        <ele>94.8271484</ele>
        <time>2016-01-23T08:07:02Z</time>
      </trkpt>
      <trkpt lat="43.98716" lon="5.05649">
        <ele>92.4239502</ele>
        <time>2016-01-23T08:07:10Z</time>
      </trkpt>
      <trkpt lat="43.98663" lon="5.05646">
        <ele>89.0593262</ele>
        <time>2016-01-23T08:07:19Z</time>
      </trkpt>
      <trkpt lat="43.98619" lon="5.05648">
        <ele>87.6171875</ele>
        <time>2016-01-23T08:07:26Z</time>
      </trkpt>
      <trkpt lat="43.98595" lon="5.05664">
        <ele>87.6171875</ele>
        <time>2016-01-23T08:07:31Z</time>
      </trkpt>
      <trkpt lat="43.98567" lon="5.05704">
        <ele>88.5787354</ele>
        <time>2016-01-23T08:07:42Z</time>
      </trkpt>
      <trkpt lat="43.98551" lon="5.05734">
        <ele>87.1365967</ele>
        <time>2016-01-23T08:07:50Z</time>
      </trkpt>
      <trkpt lat="43.98521" lon="5.05742">
        <ele>85.6945801</ele>
        <time>2016-01-23T08:07:58Z</time>
      </trkpt>
      <trkpt lat="43.98518" lon="5.0574">
        <ele>85.6945801</ele>
        <time>2016-01-23T08:07:59Z</time>
      </trkpt>
      <trkpt lat="43.98494" lon="5.05718">
        <ele>86.6560059</ele>
        <time>2016-01-23T08:08:07Z</time>
      </trkpt>
      <trkpt lat="43.98487" lon="5.05713">
        <ele>86.175293</ele>
        <time>2016-01-23T08:08:10Z</time>
      </trkpt>
      <trkpt lat="43.98481" lon="5.05715">
        <ele>87.6171875</ele>
        <time>2016-01-23T08:08:19Z</time>
      </trkpt>
      <trkpt lat="43.98477" lon="5.05713">
        <ele>88.0980225</ele>
        <time>2016-01-23T08:08:27Z</time>
      </trkpt>
      <trkpt lat="43.98474" lon="5.05707">
        <ele>90.0206299</ele>
        <time>2016-01-23T08:08:37Z</time>
      </trkpt>
      <trkpt lat="43.98474" lon="5.05698">
        <ele>91.4625244</ele>
        <time>2016-01-23T08:08:49Z</time>
      </trkpt>
      <trkpt lat="43.98474" lon="5.0567">
        <ele>94.3465576</ele>
        <time>2016-01-23T08:09:02Z</time>
      </trkpt>
      <trkpt lat="43.98472" lon="5.05641">
        <ele>96.7498779</ele>
        <time>2016-01-23T08:09:12Z</time>
      </trkpt>
      <trkpt lat="43.9847" lon="5.05624">
        <ele>98.1918945</ele>
        <time>2016-01-23T08:09:18Z</time>
      </trkpt>
      <trkpt lat="43.9847" lon="5.05614">
        <ele>99.1530762</ele>
        <time>2016-01-23T08:09:22Z</time>
      </trkpt>
      <trkpt lat="43.98462" lon="5.05568">
        <ele>102.5177002</ele>
        <time>2016-01-23T08:09:39Z</time>
      </trkpt>
      <trkpt lat="43.98458" lon="5.05546">
        <ele>102.998291</ele>
        <time>2016-01-23T08:09:48Z</time>
      </trkpt>
      <trkpt lat="43.98456" lon="5.05514">
        <ele>103.9597168</ele>
        <time>2016-01-23T08:10:00Z</time>
      </trkpt>
      <trkpt lat="43.9845" lon="5.05492">
        <ele>103.4790039</ele>
        <time>2016-01-23T08:10:09Z</time>
      </trkpt>
      <trkpt lat="43.98443" lon="5.0546">
        <ele>102.0371094</ele>
        <time>2016-01-23T08:10:16Z</time>
      </trkpt>
      <trkpt lat="43.98423" lon="5.05433">
        <ele>101.0756836</ele>
        <time>2016-01-23T08:10:23Z</time>
      </trkpt>
      <trkpt lat="43.98417" lon="5.05428">
        <ele>100.5950928</ele>
        <time>2016-01-23T08:10:25Z</time>
      </trkpt>
      <trkpt lat="43.98403" lon="5.05425">
        <ele>101.0756836</ele>
        <time>2016-01-23T08:10:29Z</time>
      </trkpt>
      <trkpt lat="43.98379" lon="5.05423">
        <ele>99.6337891</ele>
        <time>2016-01-23T08:10:34Z</time>
      </trkpt>
      <trkpt lat="43.98361" lon="5.05403">
        <ele>102.5177002</ele>
        <time>2016-01-23T08:10:41Z</time>
      </trkpt>
      <trkpt lat="43.9836" lon="5.054">
        <ele>102.998291</ele>
        <time>2016-01-23T08:10:42Z</time>
      </trkpt>
      <trkpt lat="43.98352" lon="5.05388">
        <ele>102.998291</ele>
        <time>2016-01-23T08:10:47Z</time>
      </trkpt>
      <trkpt lat="43.98348" lon="5.05364">
        <ele>101.5563965</ele>
        <time>2016-01-23T08:10:53Z</time>
      </trkpt>
      <trkpt lat="43.98343" lon="5.05355">
        <ele>102.5177002</ele>
        <time>2016-01-23T08:10:56Z</time>
      </trkpt>
      <trkpt lat="43.98344" lon="5.05339">
        <ele>102.5177002</ele>
        <time>2016-01-23T08:11:00Z</time>
      </trkpt>
      <trkpt lat="43.9834" lon="5.05333">
        <ele>102.5177002</ele>
        <time>2016-01-23T08:11:02Z</time>
      </trkpt>
      <trkpt lat="43.98334" lon="5.05291">
        <ele>102.0371094</ele>
        <time>2016-01-23T08:11:10Z</time>
      </trkpt>
      <trkpt lat="43.98317" lon="5.05288">
        <ele>102.998291</ele>
        <time>2016-01-23T08:11:18Z</time>
      </trkpt>
      <trkpt lat="43.98293" lon="5.05269">
        <ele>104.9210205</ele>
        <time>2016-01-23T08:11:26Z</time>
      </trkpt>
      <trkpt lat="43.98277" lon="5.05271">
        <ele>106.8436279</ele>
        <time>2016-01-23T08:11:31Z</time>
      </trkpt>
      <trkpt lat="43.98247" lon="5.05292">
        <ele>108.2856445</ele>
        <time>2016-01-23T08:11:43Z</time>
      </trkpt>
      <trkpt lat="43.98212" lon="5.05318">
        <ele>107.8050537</ele>
        <time>2016-01-23T08:11:55Z</time>
      </trkpt>
      <trkpt lat="43.98177" lon="5.05347">
        <ele>107.3243408</ele>
        <time>2016-01-23T08:12:07Z</time>
      </trkpt>
      <trkpt lat="43.98142" lon="5.05358">
        <ele>102.5177002</ele>
        <time>2016-01-23T08:12:18Z</time>
      </trkpt>
      <trkpt lat="43.98098" lon="5.05352">
        <ele>102.5177002</ele>
        <time>2016-01-23T08:12:30Z</time>
      </trkpt>
      <trkpt lat="43.98083" lon="5.0535">
        <ele>102.998291</ele>
        <time>2016-01-23T08:12:34Z</time>
      </trkpt>
      <trkpt lat="43.98079" lon="5.05338">
        <ele>101.0756836</ele>
        <time>2016-01-23T08:12:39Z</time>
      </trkpt>
      <trkpt lat="43.9808" lon="5.05332">
        <ele>100.5950928</ele>
        <time>2016-01-23T08:12:41Z</time>
      </trkpt>
      <trkpt lat="43.98079" lon="5.05328">
        <ele>100.5950928</ele>
        <time>2016-01-23T08:12:43Z</time>
      </trkpt>
      <trkpt lat="43.98072" lon="5.05315">
        <ele>97.7111816</ele>
        <time>2016-01-23T08:12:47Z</time>
      </trkpt>
      <trkpt lat="43.98061" lon="5.05291">
        <ele>97.7111816</ele>
        <time>2016-01-23T08:12:51Z</time>
      </trkpt>
      <trkpt lat="43.98052" lon="5.05266">
        <ele>98.1918945</ele>
        <time>2016-01-23T08:12:55Z</time>
      </trkpt>
      <trkpt lat="43.98046" lon="5.05255">
        <ele>99.1530762</ele>
        <time>2016-01-23T08:12:57Z</time>
      </trkpt>
      <trkpt lat="43.98031" lon="5.05235">
        <ele>103.4790039</ele>
        <time>2016-01-23T08:13:04Z</time>
      </trkpt>
      <trkpt lat="43.98026" lon="5.05215">
        <ele>103.9597168</ele>
        <time>2016-01-23T08:13:10Z</time>
      </trkpt>
      <trkpt lat="43.98015" lon="5.05171">
        <ele>104.4404297</ele>
        <time>2016-01-23T08:13:19Z</time>
      </trkpt>
      <trkpt lat="43.98012" lon="5.05163">
        <ele>104.9210205</ele>
        <time>2016-01-23T08:13:21Z</time>
      </trkpt>
      <trkpt lat="43.9802" lon="5.05145">
        <ele>103.4790039</ele>
        <time>2016-01-23T08:13:27Z</time>
      </trkpt>
      <trkpt lat="43.98028" lon="5.05131">
        <ele>102.0371094</ele>
        <time>2016-01-23T08:13:32Z</time>
      </trkpt>
      <trkpt lat="43.98033" lon="5.05119">
        <ele>100.114502</ele>
        <time>2016-01-23T08:13:36Z</time>
      </trkpt>
      <trkpt lat="43.98045" lon="5.05108">
        <ele>99.1530762</ele>
        <time>2016-01-23T08:13:41Z</time>
      </trkpt>
      <trkpt lat="43.98052" lon="5.05098">
        <ele>98.6724854</ele>
        <time>2016-01-23T08:13:44Z</time>
      </trkpt>
      <trkpt lat="43.98053" lon="5.05085">
        <ele>97.2304688</ele>
        <time>2016-01-23T08:13:48Z</time>
      </trkpt>
      <trkpt lat="43.98049" lon="5.05079">
        <ele>96.2692871</ele>
        <time>2016-01-23T08:13:50Z</time>
      </trkpt>
      <trkpt lat="43.98024" lon="5.05073">
        <ele>93.8658447</ele>
        <time>2016-01-23T08:13:58Z</time>
      </trkpt>
      <trkpt lat="43.97981" lon="5.05062">
        <ele>92.4239502</ele>
        <time>2016-01-23T08:14:12Z</time>
      </trkpt>
      <trkpt lat="43.97935" lon="5.05061">
        <ele>92.904541</ele>
        <time>2016-01-23T08:14:27Z</time>
      </trkpt>
      <trkpt lat="43.97903" lon="5.0506">
        <ele>91.9432373</ele>
        <time>2016-01-23T08:14:38Z</time>
      </trkpt>
      <trkpt lat="43.97855" lon="5.0505">
        <ele>90.5013428</ele>
        <time>2016-01-23T08:14:52Z</time>
      </trkpt>
      <trkpt lat="43.97818" lon="5.05041">
        <ele>91.4625244</ele>
        <time>2016-01-23T08:15:06Z</time>
      </trkpt>
      <trkpt lat="43.97792" lon="5.05036">
        <ele>91.9432373</ele>
        <time>2016-01-23T08:15:17Z</time>
      </trkpt>
      <trkpt lat="43.97755" lon="5.05029">
        <ele>92.4239502</ele>
        <time>2016-01-23T08:15:30Z</time>
      </trkpt>
      <trkpt lat="43.97711" lon="5.05026">
        <ele>90.9819336</ele>
        <time>2016-01-23T08:15:43Z</time>
      </trkpt>
      <trkpt lat="43.97691" lon="5.05023">
        <ele>89.539917</ele>
        <time>2016-01-23T08:15:48Z</time>
      </trkpt>
      <trkpt lat="43.97638" lon="5.05013">
        <ele>88.5787354</ele>
        <time>2016-01-23T08:16:02Z</time>
      </trkpt>
      <trkpt lat="43.97635" lon="5.05011">
        <ele>88.5787354</ele>
        <time>2016-01-23T08:16:03Z</time>
      </trkpt>
      <trkpt lat="43.97615" lon="5.05025">
        <ele>90.0206299</ele>
        <time>2016-01-23T08:16:11Z</time>
      </trkpt>
      <trkpt lat="43.97599" lon="5.0508">
        <ele>93.3851318</ele>
        <time>2016-01-23T08:16:25Z</time>
      </trkpt>
      <trkpt lat="43.97594" lon="5.05126">
        <ele>98.6724854</ele>
        <time>2016-01-23T08:16:37Z</time>
      </trkpt>
      <trkpt lat="43.97592" lon="5.05163">
        <ele>102.998291</ele>
        <time>2016-01-23T08:16:48Z</time>
      </trkpt>
      <trkpt lat="43.97593" lon="5.0519">
        <ele>104.4404297</ele>
        <time>2016-01-23T08:16:56Z</time>
      </trkpt>
      <trkpt lat="43.97585" lon="5.05199">
        <ele>98.1918945</ele>
        <time>2016-01-23T08:17:00Z</time>
      </trkpt>
      <trkpt lat="43.97538" lon="5.0521">
        <ele>92.904541</ele>
        <time>2016-01-23T08:17:11Z</time>
      </trkpt>
      <trkpt lat="43.97525" lon="5.0522">
        <ele>92.904541</ele>
        <time>2016-01-23T08:17:15Z</time>
      </trkpt>
      <trkpt lat="43.97521" lon="5.05226">
        <ele>92.904541</ele>
        <time>2016-01-23T08:17:17Z</time>
      </trkpt>
      <trkpt lat="43.97494" lon="5.05231">
        <ele>92.904541</ele>
        <time>2016-01-23T08:17:28Z</time>
      </trkpt>
      <trkpt lat="43.97467" lon="5.05228">
        <ele>94.8271484</ele>
        <time>2016-01-23T08:17:41Z</time>
      </trkpt>
      <trkpt lat="43.97464" lon="5.05227">
        <ele>94.8271484</ele>
        <time>2016-01-23T08:17:43Z</time>
      </trkpt>
      <trkpt lat="43.97464" lon="5.05213">
        <ele>93.3851318</ele>
        <time>2016-01-23T08:17:48Z</time>
      </trkpt>
      <trkpt lat="43.97462" lon="5.05176">
        <ele>97.2304688</ele>
        <time>2016-01-23T08:17:59Z</time>
      </trkpt>
      <trkpt lat="43.97462" lon="5.05173">
        <ele>97.7111816</ele>
        <time>2016-01-23T08:18:00Z</time>
      </trkpt>
      <trkpt lat="43.97463" lon="5.05159">
        <ele>100.114502</ele>
        <time>2016-01-23T08:18:05Z</time>
      </trkpt>
      <trkpt lat="43.97459" lon="5.05148">
        <ele>102.0371094</ele>
        <time>2016-01-23T08:18:12Z</time>
      </trkpt>
      <trkpt lat="43.97453" lon="5.05148">
        <ele>103.4790039</ele>
        <time>2016-01-23T08:18:17Z</time>
      </trkpt>
      <trkpt lat="43.97455" lon="5.05162">
        <ele>103.4790039</ele>
        <time>2016-01-23T08:18:22Z</time>
      </trkpt>
      <trkpt lat="43.97452" lon="5.05175">
        <ele>104.4404297</ele>
        <time>2016-01-23T08:18:27Z</time>
      </trkpt>
      <trkpt lat="43.97452" lon="5.05184">
        <ele>104.4404297</ele>
        <time>2016-01-23T08:18:31Z</time>
      </trkpt>
      <trkpt lat="43.97452" lon="5.05193">
        <ele>104.4404297</ele>
        <time>2016-01-23T08:18:35Z</time>
      </trkpt>
      <trkpt lat="43.97444" lon="5.05204">
        <ele>106.8436279</ele>
        <time>2016-01-23T08:18:47Z</time>
      </trkpt>
      <trkpt lat="43.97441" lon="5.05215">
        <ele>109.2469482</ele>
        <time>2016-01-23T08:19:03Z</time>
      </trkpt>
      <trkpt lat="43.97441" lon="5.05217">
        <ele>108.7662354</ele>
        <time>2016-01-23T08:19:04Z</time>
      </trkpt>
      <trkpt lat="43.9744" lon="5.05232">
        <ele>108.2856445</ele>
        <time>2016-01-23T08:19:13Z</time>
      </trkpt>
      <trkpt lat="43.97439" lon="5.05233">
        <ele>108.2856445</ele>
        <time>2016-01-23T08:19:34Z</time>
      </trkpt>
      <trkpt lat="43.97434" lon="5.05239">
        <ele>108.7662354</ele>
        <time>2016-01-23T08:19:43Z</time>
      </trkpt>
      <trkpt lat="43.97432" lon="5.05241">
        <ele>108.7662354</ele>
        <time>2016-01-23T08:19:45Z</time>
      </trkpt>
      <trkpt lat="43.97427" lon="5.05247">
        <ele>109.2469482</ele>
        <time>2016-01-23T08:19:50Z</time>
      </trkpt>
      <trkpt lat="43.97419" lon="5.05264">
        <ele>107.8050537</ele>
        <time>2016-01-23T08:19:56Z</time>
      </trkpt>
      <trkpt lat="43.97404" lon="5.05278">
        <ele>109.7276611</ele>
        <time>2016-01-23T08:20:04Z</time>
      </trkpt>
      <trkpt lat="43.97396" lon="5.05292">
        <ele>110.208252</ele>
        <time>2016-01-23T08:20:08Z</time>
      </trkpt>
      <trkpt lat="43.97387" lon="5.05307">
        <ele>106.8436279</ele>
        <time>2016-01-23T08:20:11Z</time>
      </trkpt>
      <trkpt lat="43.97355" lon="5.05328">
        <ele>105.4017334</ele>
        <time>2016-01-23T08:20:18Z</time>
      </trkpt>
      <trkpt lat="43.97343" lon="5.05351">
        <ele>106.3630371</ele>
        <time>2016-01-23T08:20:22Z</time>
      </trkpt>
      <trkpt lat="43.97334" lon="5.05377">
        <ele>107.3243408</ele>
        <time>2016-01-23T08:20:26Z</time>
      </trkpt>
      <trkpt lat="43.97314" lon="5.05442">
        <ele>110.6888428</ele>
        <time>2016-01-23T08:20:40Z</time>
      </trkpt>
      <trkpt lat="43.97308" lon="5.0546">
        <ele>112.1309814</ele>
        <time>2016-01-23T08:20:46Z</time>
      </trkpt>
      <trkpt lat="43.97314" lon="5.05473">
        <ele>112.6115723</ele>
        <time>2016-01-23T08:20:55Z</time>
      </trkpt>
      <trkpt lat="43.97317" lon="5.05476">
        <ele>113.0922852</ele>
        <time>2016-01-23T08:20:58Z</time>
      </trkpt>
      <trkpt lat="43.9732" lon="5.05481">
        <ele>114.0535889</ele>
        <time>2016-01-23T08:21:07Z</time>
      </trkpt>
      <trkpt lat="43.97324" lon="5.05488">
        <ele>115.0148926</ele>
        <time>2016-01-23T08:21:20Z</time>
      </trkpt>
      <trkpt lat="43.97322" lon="5.05492">
        <ele>115.4956055</ele>
        <time>2016-01-23T08:21:30Z</time>
      </trkpt>
      <trkpt lat="43.9732" lon="5.05493">
        <ele>114.0535889</ele>
        <time>2016-01-23T08:21:56Z</time>
      </trkpt>
      <trkpt lat="43.97318" lon="5.05501">
        <ele>113.572998</ele>
        <time>2016-01-23T08:22:32Z</time>
      </trkpt>
      <trkpt lat="43.97314" lon="5.05509">
        <ele>115.9761963</ele>
        <time>2016-01-23T08:22:50Z</time>
      </trkpt>
      <trkpt lat="43.97307" lon="5.05513">
        <ele>119.8214111</ele>
        <time>2016-01-23T08:23:02Z</time>
      </trkpt>
      <trkpt lat="43.97307" lon="5.05513">
        <ele>119.8214111</ele>
        <time>2016-01-23T08:23:07Z</time>
      </trkpt>
      <trkpt lat="43.97301" lon="5.05513">
        <ele>121.2635498</ele>
        <time>2016-01-23T08:23:11Z</time>
      </trkpt>
      <trkpt lat="43.97294" lon="5.05516">
        <ele>123.1861572</ele>
        <time>2016-01-23T08:23:16Z</time>
      </trkpt>
      <trkpt lat="43.97294" lon="5.05525">
        <ele>123.666748</ele>
        <time>2016-01-23T08:23:21Z</time>
      </trkpt>
      <trkpt lat="43.97295" lon="5.05531">
        <ele>124.1473389</ele>
        <time>2016-01-23T08:23:24Z</time>
      </trkpt>
      <trkpt lat="43.97306" lon="5.05538">
        <ele>127.0313721</ele>
        <time>2016-01-23T08:23:33Z</time>
      </trkpt>
      <trkpt lat="43.9731" lon="5.05536">
        <ele>127.0313721</ele>
        <time>2016-01-23T08:23:35Z</time>
      </trkpt>
      <trkpt lat="43.97333" lon="5.05544">
        <ele>130.876709</ele>
        <time>2016-01-23T08:23:43Z</time>
      </trkpt>
      <trkpt lat="43.97349" lon="5.05552">
        <ele>135.2025146</ele>
        <time>2016-01-23T08:23:52Z</time>
      </trkpt>
      <trkpt lat="43.97355" lon="5.05556">
        <ele>139.0478516</ele>
        <time>2016-01-23T08:23:56Z</time>
      </trkpt>
      <trkpt lat="43.97357" lon="5.05559">
        <ele>140.0091553</ele>
        <time>2016-01-23T08:23:58Z</time>
      </trkpt>
      <trkpt lat="43.97365" lon="5.05565">
        <ele>141.9317627</ele>
        <time>2016-01-23T08:24:04Z</time>
      </trkpt>
      <trkpt lat="43.97372" lon="5.0558">
        <ele>144.3352051</ele>
        <time>2016-01-23T08:24:11Z</time>
      </trkpt>
      <trkpt lat="43.97379" lon="5.05598">
        <ele>145.7770996</ele>
        <time>2016-01-23T08:24:18Z</time>
      </trkpt>
      <trkpt lat="43.97382" lon="5.05605">
        <ele>148.6610107</ele>
        <time>2016-01-23T08:24:22Z</time>
      </trkpt>
      <trkpt lat="43.97383" lon="5.05608">
        <ele>149.1416016</ele>
        <time>2016-01-23T08:24:24Z</time>
      </trkpt>
      <trkpt lat="43.97385" lon="5.05626">
        <ele>149.1416016</ele>
        <time>2016-01-23T08:24:30Z</time>
      </trkpt>
      <trkpt lat="43.97385" lon="5.05628">
        <ele>149.1416016</ele>
        <time>2016-01-23T08:24:31Z</time>
      </trkpt>
      <trkpt lat="43.97387" lon="5.05633">
        <ele>149.6223145</ele>
        <time>2016-01-23T08:24:33Z</time>
      </trkpt>
      <trkpt lat="43.97385" lon="5.05649">
        <ele>150.1030273</ele>
        <time>2016-01-23T08:24:39Z</time>
      </trkpt>
      <trkpt lat="43.97383" lon="5.05652">
        <ele>150.5836182</ele>
        <time>2016-01-23T08:24:41Z</time>
      </trkpt>
      <trkpt lat="43.97388" lon="5.05665">
        <ele>150.1030273</ele>
        <time>2016-01-23T08:24:46Z</time>
      </trkpt>
      <trkpt lat="43.9739" lon="5.05671">
        <ele>150.1030273</ele>
        <time>2016-01-23T08:24:48Z</time>
      </trkpt>
      <trkpt lat="43.97387" lon="5.05681">
        <ele>150.5836182</ele>
        <time>2016-01-23T08:24:53Z</time>
      </trkpt>
      <trkpt lat="43.9739" lon="5.05708">
        <ele>150.1030273</ele>
        <time>2016-01-23T08:25:02Z</time>
      </trkpt>
      <trkpt lat="43.97391" lon="5.05711">
        <ele>149.6223145</ele>
        <time>2016-01-23T08:25:03Z</time>
      </trkpt>
      <trkpt lat="43.97391" lon="5.05719">
        <ele>148.6610107</ele>
        <time>2016-01-23T08:25:06Z</time>
      </trkpt>
      <trkpt lat="43.97389" lon="5.05727">
        <ele>146.7384033</ele>
        <time>2016-01-23T08:25:10Z</time>
      </trkpt>
      <trkpt lat="43.9739" lon="5.05742">
        <ele>145.7770996</ele>
        <time>2016-01-23T08:25:19Z</time>
      </trkpt>
      <trkpt lat="43.97397" lon="5.05746">
        <ele>143.3736572</ele>
        <time>2016-01-23T08:25:22Z</time>
      </trkpt>
      <trkpt lat="43.97399" lon="5.05754">
        <ele>142.4124756</ele>
        <time>2016-01-23T08:25:25Z</time>
      </trkpt>
      <trkpt lat="43.97391" lon="5.05764">
        <ele>142.4124756</ele>
        <time>2016-01-23T08:25:30Z</time>
      </trkpt>
      <trkpt lat="43.97386" lon="5.05784">
        <ele>141.4510498</ele>
        <time>2016-01-23T08:25:38Z</time>
      </trkpt>
      <trkpt lat="43.97383" lon="5.05802">
        <ele>142.8930664</ele>
        <time>2016-01-23T08:25:44Z</time>
      </trkpt>
      <trkpt lat="43.97383" lon="5.05809">
        <ele>143.3736572</ele>
        <time>2016-01-23T08:25:46Z</time>
      </trkpt>
      <trkpt lat="43.9738" lon="5.05829">
        <ele>140.0091553</ele>
        <time>2016-01-23T08:25:53Z</time>
      </trkpt>
      <trkpt lat="43.97379" lon="5.05835">
        <ele>141.4510498</ele>
        <time>2016-01-23T08:25:55Z</time>
      </trkpt>
      <trkpt lat="43.97375" lon="5.05851">
        <ele>144.8157959</ele>
        <time>2016-01-23T08:26:03Z</time>
      </trkpt>
      <trkpt lat="43.97373" lon="5.05853">
        <ele>144.8157959</ele>
        <time>2016-01-23T08:26:05Z</time>
      </trkpt>
      <trkpt lat="43.9737" lon="5.05858">
        <ele>145.7770996</ele>
        <time>2016-01-23T08:26:07Z</time>
      </trkpt>
      <trkpt lat="43.97366" lon="5.05887">
        <ele>145.2963867</ele>
        <time>2016-01-23T08:26:17Z</time>
      </trkpt>
      <trkpt lat="43.97381" lon="5.059">
        <ele>141.4510498</ele>
        <time>2016-01-23T08:26:22Z</time>
      </trkpt>
      <trkpt lat="43.97388" lon="5.05915">
        <ele>140.4898682</ele>
        <time>2016-01-23T08:26:26Z</time>
      </trkpt>
      <trkpt lat="43.97389" lon="5.05948">
        <ele>141.9317627</ele>
        <time>2016-01-23T08:26:35Z</time>
      </trkpt>
      <trkpt lat="43.97385" lon="5.05965">
        <ele>141.4510498</ele>
        <time>2016-01-23T08:26:40Z</time>
      </trkpt>
      <trkpt lat="43.97377" lon="5.05979">
        <ele>140.970459</ele>
        <time>2016-01-23T08:26:45Z</time>
      </trkpt>
      <trkpt lat="43.97369" lon="5.0601">
        <ele>143.3736572</ele>
        <time>2016-01-23T08:26:55Z</time>
      </trkpt>
      <trkpt lat="43.97374" lon="5.06019">
        <ele>143.3736572</ele>
        <time>2016-01-23T08:27:01Z</time>
      </trkpt>
      <trkpt lat="43.97391" lon="5.06027">
        <ele>140.970459</ele>
        <time>2016-01-23T08:27:08Z</time>
      </trkpt>
      <trkpt lat="43.97404" lon="5.06058">
        <ele>141.4510498</ele>
        <time>2016-01-23T08:27:17Z</time>
      </trkpt>
      <trkpt lat="43.97415" lon="5.0607">
        <ele>142.8930664</ele>
        <time>2016-01-23T08:27:23Z</time>
      </trkpt>
      <trkpt lat="43.97418" lon="5.06075">
        <ele>142.8930664</ele>
        <time>2016-01-23T08:27:25Z</time>
      </trkpt>
      <trkpt lat="43.97438" lon="5.06086">
        <ele>143.3736572</ele>
        <time>2016-01-23T08:27:35Z</time>
      </trkpt>
      <trkpt lat="43.97439" lon="5.06087">
        <ele>143.3736572</ele>
        <time>2016-01-23T08:27:36Z</time>
      </trkpt>
      <trkpt lat="43.97447" lon="5.06087">
        <ele>142.4124756</ele>
        <time>2016-01-23T08:27:39Z</time>
      </trkpt>
      <trkpt lat="43.9746" lon="5.06088">
        <ele>143.3736572</ele>
        <time>2016-01-23T08:27:43Z</time>
      </trkpt>
      <trkpt lat="43.97487" lon="5.06095">
        <ele>145.7770996</ele>
        <time>2016-01-23T08:27:57Z</time>
      </trkpt>
      <trkpt lat="43.97492" lon="5.06096">
        <ele>146.2578125</ele>
        <time>2016-01-23T08:28:00Z</time>
      </trkpt>
      <trkpt lat="43.97492" lon="5.06108">
        <ele>146.2578125</ele>
        <time>2016-01-23T08:28:06Z</time>
      </trkpt>
      <trkpt lat="43.97493" lon="5.06113">
        <ele>146.2578125</ele>
        <time>2016-01-23T08:28:08Z</time>
      </trkpt>
      <trkpt lat="43.97495" lon="5.06116">
        <ele>145.7770996</ele>
        <time>2016-01-23T08:28:10Z</time>
      </trkpt>
      <trkpt lat="43.97497" lon="5.06141">
        <ele>147.2189941</ele>
        <time>2016-01-23T08:28:23Z</time>
      </trkpt>
      <trkpt lat="43.975" lon="5.06146">
        <ele>148.6610107</ele>
        <time>2016-01-23T08:28:26Z</time>
      </trkpt>
      <trkpt lat="43.97501" lon="5.0615">
        <ele>150.5836182</ele>
        <time>2016-01-23T08:28:28Z</time>
      </trkpt>
      <trkpt lat="43.97501" lon="5.06155">
        <ele>151.5449219</ele>
        <time>2016-01-23T08:28:30Z</time>
      </trkpt>
      <trkpt lat="43.97505" lon="5.06177">
        <ele>154.4289551</ele>
        <time>2016-01-23T08:28:39Z</time>
      </trkpt>
      <trkpt lat="43.97507" lon="5.0621">
        <ele>155.3902588</ele>
        <time>2016-01-23T08:28:54Z</time>
      </trkpt>
      <trkpt lat="43.9751" lon="5.06247">
        <ele>154.4289551</ele>
        <time>2016-01-23T08:29:05Z</time>
      </trkpt>
      <trkpt lat="43.97516" lon="5.06274">
        <ele>150.1030273</ele>
        <time>2016-01-23T08:29:10Z</time>
      </trkpt>
      <trkpt lat="43.97523" lon="5.06295">
        <ele>147.699707</ele>
        <time>2016-01-23T08:29:13Z</time>
      </trkpt>
      <trkpt lat="43.97539" lon="5.06321">
        <ele>143.8543701</ele>
        <time>2016-01-23T08:29:21Z</time>
      </trkpt>
      <trkpt lat="43.97552" lon="5.06331">
        <ele>141.9317627</ele>
        <time>2016-01-23T08:29:31Z</time>
      </trkpt>
      <trkpt lat="43.9759" lon="5.06364">
        <ele>138.0865479</ele>
        <time>2016-01-23T08:29:39Z</time>
      </trkpt>
      <trkpt lat="43.97597" lon="5.06369">
        <ele>138.5672607</ele>
        <time>2016-01-23T08:29:40Z</time>
      </trkpt>
      <trkpt lat="43.97646" lon="5.06435">
        <ele>131.8378906</ele>
        <time>2016-01-23T08:29:49Z</time>
      </trkpt>
      <trkpt lat="43.9768" lon="5.06473">
        <ele>129.4346924</ele>
        <time>2016-01-23T08:29:55Z</time>
      </trkpt>
      <trkpt lat="43.97708" lon="5.06503">
        <ele>128.9541016</ele>
        <time>2016-01-23T08:30:00Z</time>
      </trkpt>
      <trkpt lat="43.97735" lon="5.06534">
        <ele>126.5506592</ele>
        <time>2016-01-23T08:30:05Z</time>
      </trkpt>
      <trkpt lat="43.97808" lon="5.06589">
        <ele>118.3793945</ele>
        <time>2016-01-23T08:30:14Z</time>
      </trkpt>
      <trkpt lat="43.97852" lon="5.06643">
        <ele>109.7276611</ele>
        <time>2016-01-23T08:30:21Z</time>
      </trkpt>
      <trkpt lat="43.9786" lon="5.06653">
        <ele>108.2856445</ele>
        <time>2016-01-23T08:30:23Z</time>
      </trkpt>
      <trkpt lat="43.97854" lon="5.06668">
        <ele>106.8436279</ele>
        <time>2016-01-23T08:30:28Z</time>
      </trkpt>
      <trkpt lat="43.97829" lon="5.06694">
        <ele>106.3630371</ele>
        <time>2016-01-23T08:30:39Z</time>
      </trkpt>
      <trkpt lat="43.97809" lon="5.06719">
        <ele>109.7276611</ele>
        <time>2016-01-23T08:30:50Z</time>
      </trkpt>
      <trkpt lat="43.97784" lon="5.06741">
        <ele>111.6502686</ele>
        <time>2016-01-23T08:31:04Z</time>
      </trkpt>
      <trkpt lat="43.97748" lon="5.06765">
        <ele>110.208252</ele>
        <time>2016-01-23T08:31:20Z</time>
      </trkpt>
      <trkpt lat="43.97716" lon="5.06778">
        <ele>111.6502686</ele>
        <time>2016-01-23T08:31:34Z</time>
      </trkpt>
      <trkpt lat="43.97678" lon="5.0679">
        <ele>112.1309814</ele>
        <time>2016-01-23T08:31:50Z</time>
      </trkpt>
      <trkpt lat="43.97646" lon="5.06798">
        <ele>115.0148926</ele>
        <time>2016-01-23T08:32:05Z</time>
      </trkpt>
      <trkpt lat="43.97608" lon="5.06799">
        <ele>117.8988037</ele>
        <time>2016-01-23T08:32:22Z</time>
      </trkpt>
      <trkpt lat="43.97573" lon="5.06794">
        <ele>123.1861572</ele>
        <time>2016-01-23T08:32:38Z</time>
      </trkpt>
      <trkpt lat="43.9756" lon="5.06785">
        <ele>123.666748</ele>
        <time>2016-01-23T08:32:47Z</time>
      </trkpt>
      <trkpt lat="43.97556" lon="5.06757">
        <ele>124.1473389</ele>
        <time>2016-01-23T08:32:57Z</time>
      </trkpt>
      <trkpt lat="43.97556" lon="5.06752">
        <ele>126.0699463</ele>
        <time>2016-01-23T08:33:08Z</time>
      </trkpt>
      <trkpt lat="43.97556" lon="5.0678">
        <ele>127.5119629</ele>
        <time>2016-01-23T08:33:17Z</time>
      </trkpt>
      <trkpt lat="43.97546" lon="5.06781">
        <ele>126.5506592</ele>
        <time>2016-01-23T08:33:21Z</time>
      </trkpt>
      <trkpt lat="43.97505" lon="5.06745">
        <ele>123.1861572</ele>
        <time>2016-01-23T08:33:33Z</time>
      </trkpt>
      <trkpt lat="43.97474" lon="5.06729">
        <ele>119.3408203</ele>
        <time>2016-01-23T08:33:43Z</time>
      </trkpt>
      <trkpt lat="43.9743" lon="5.06768">
        <ele>124.1473389</ele>
        <time>2016-01-23T08:33:57Z</time>
      </trkpt>
      <trkpt lat="43.97391" lon="5.06801">
        <ele>128.4733887</ele>
        <time>2016-01-23T08:34:11Z</time>
      </trkpt>
      <trkpt lat="43.97377" lon="5.06813">
        <ele>131.3572998</ele>
        <time>2016-01-23T08:34:20Z</time>
      </trkpt>
      <trkpt lat="43.97372" lon="5.06823">
        <ele>133.760498</ele>
        <time>2016-01-23T08:34:29Z</time>
      </trkpt>
      <trkpt lat="43.9737" lon="5.06834">
        <ele>133.760498</ele>
        <time>2016-01-23T08:34:35Z</time>
      </trkpt>
      <trkpt lat="43.97372" lon="5.06841">
        <ele>133.760498</ele>
        <time>2016-01-23T08:34:42Z</time>
      </trkpt>
      <trkpt lat="43.97373" lon="5.06843">
        <ele>135.6831055</ele>
        <time>2016-01-23T08:34:45Z</time>
      </trkpt>
      <trkpt lat="43.97368" lon="5.06849">
        <ele>136.6446533</ele>
        <time>2016-01-23T08:34:56Z</time>
      </trkpt>
      <trkpt lat="43.97367" lon="5.06849">
        <ele>137.605835</ele>
        <time>2016-01-23T08:40:51Z</time>
      </trkpt>
      <trkpt lat="43.97354" lon="5.06844">
        <ele>137.605835</ele>
        <time>2016-01-23T08:40:58Z</time>
      </trkpt>
      <trkpt lat="43.97339" lon="5.06827">
        <ele>137.1252441</ele>
        <time>2016-01-23T08:41:07Z</time>
      </trkpt>
      <trkpt lat="43.97322" lon="5.06802">
        <ele>138.5672607</ele>
        <time>2016-01-23T08:41:17Z</time>
      </trkpt>
      <trkpt lat="43.97308" lon="5.068">
        <ele>141.4510498</ele>
        <time>2016-01-23T08:41:25Z</time>
      </trkpt>
      <trkpt lat="43.973" lon="5.06801">
        <ele>142.8930664</ele>
        <time>2016-01-23T08:41:30Z</time>
      </trkpt>
      <trkpt lat="43.97298" lon="5.068">
        <ele>142.4124756</ele>
        <time>2016-01-23T08:41:32Z</time>
      </trkpt>
      <trkpt lat="43.97294" lon="5.06802">
        <ele>142.8930664</ele>
        <time>2016-01-23T08:41:35Z</time>
      </trkpt>
      <trkpt lat="43.97289" lon="5.06802">
        <ele>143.3736572</ele>
        <time>2016-01-23T08:41:38Z</time>
      </trkpt>
      <trkpt lat="43.97282" lon="5.06813">
        <ele>144.8157959</ele>
        <time>2016-01-23T08:41:44Z</time>
      </trkpt>
      <trkpt lat="43.9727" lon="5.06819">
        <ele>145.2963867</ele>
        <time>2016-01-23T08:41:51Z</time>
      </trkpt>
      <trkpt lat="43.9726" lon="5.06828">
        <ele>144.8157959</ele>
        <time>2016-01-23T08:41:56Z</time>
      </trkpt>
      <trkpt lat="43.97241" lon="5.06852">
        <ele>143.8543701</ele>
        <time>2016-01-23T08:42:07Z</time>
      </trkpt>
      <trkpt lat="43.9722" lon="5.06861">
        <ele>141.4510498</ele>
        <time>2016-01-23T08:42:16Z</time>
      </trkpt>
      <trkpt lat="43.97208" lon="5.06867">
        <ele>140.4898682</ele>
        <time>2016-01-23T08:42:20Z</time>
      </trkpt>
      <trkpt lat="43.97202" lon="5.06877">
        <ele>139.5284424</ele>
        <time>2016-01-23T08:42:24Z</time>
      </trkpt>
      <trkpt lat="43.97175" lon="5.06905">
        <ele>139.0478516</ele>
        <time>2016-01-23T08:42:37Z</time>
      </trkpt>
      <trkpt lat="43.97172" lon="5.06907">
        <ele>139.5284424</ele>
        <time>2016-01-23T08:42:38Z</time>
      </trkpt>
      <trkpt lat="43.97162" lon="5.06911">
        <ele>139.0478516</ele>
        <time>2016-01-23T08:42:42Z</time>
      </trkpt>
      <trkpt lat="43.97153" lon="5.06921">
        <ele>140.0091553</ele>
        <time>2016-01-23T08:42:48Z</time>
      </trkpt>
      <trkpt lat="43.97135" lon="5.06937">
        <ele>140.970459</ele>
        <time>2016-01-23T08:42:59Z</time>
      </trkpt>
      <trkpt lat="43.97133" lon="5.06936">
        <ele>141.4510498</ele>
        <time>2016-01-23T08:43:00Z</time>
      </trkpt>
      <trkpt lat="43.97129" lon="5.06936">
        <ele>141.9317627</ele>
        <time>2016-01-23T08:43:04Z</time>
      </trkpt>
      <trkpt lat="43.9712" lon="5.06945">
        <ele>141.9317627</ele>
        <time>2016-01-23T08:43:08Z</time>
      </trkpt>
      <trkpt lat="43.97116" lon="5.06953">
        <ele>142.4124756</ele>
        <time>2016-01-23T08:43:11Z</time>
      </trkpt>
      <trkpt lat="43.9711" lon="5.06964">
        <ele>143.3736572</ele>
        <time>2016-01-23T08:43:15Z</time>
      </trkpt>
      <trkpt lat="43.97091" lon="5.06989">
        <ele>147.2189941</ele>
        <time>2016-01-23T08:43:25Z</time>
      </trkpt>
      <trkpt lat="43.97071" lon="5.06994">
        <ele>147.699707</ele>
        <time>2016-01-23T08:43:31Z</time>
      </trkpt>
      <trkpt lat="43.97027" lon="5.06996">
        <ele>145.2963867</ele>
        <time>2016-01-23T08:43:42Z</time>
      </trkpt>
      <trkpt lat="43.9699" lon="5.06999">
        <ele>144.8157959</ele>
        <time>2016-01-23T08:43:51Z</time>
      </trkpt>
      <trkpt lat="43.96959" lon="5.07005">
        <ele>143.8543701</ele>
        <time>2016-01-23T08:44:01Z</time>
      </trkpt>
      <trkpt lat="43.96958" lon="5.07003">
        <ele>144.8157959</ele>
        <time>2016-01-23T08:44:11Z</time>
      </trkpt>
      <trkpt lat="43.96956" lon="5.07">
        <ele>144.8157959</ele>
        <time>2016-01-23T08:44:23Z</time>
      </trkpt>
      <trkpt lat="43.96951" lon="5.07">
        <ele>144.8157959</ele>
        <time>2016-01-23T08:44:27Z</time>
      </trkpt>
      <trkpt lat="43.96927" lon="5.06992">
        <ele>143.8543701</ele>
        <time>2016-01-23T08:44:38Z</time>
      </trkpt>
      <trkpt lat="43.96899" lon="5.06966">
        <ele>142.8930664</ele>
        <time>2016-01-23T08:44:49Z</time>
      </trkpt>
      <trkpt lat="43.96884" lon="5.06951">
        <ele>144.3352051</ele>
        <time>2016-01-23T08:44:55Z</time>
      </trkpt>
      <trkpt lat="43.96855" lon="5.06913">
        <ele>146.7384033</ele>
        <time>2016-01-23T08:45:10Z</time>
      </trkpt>
      <trkpt lat="43.96834" lon="5.06886">
        <ele>147.699707</ele>
        <time>2016-01-23T08:45:23Z</time>
      </trkpt>
      <trkpt lat="43.96815" lon="5.06871">
        <ele>147.699707</ele>
        <time>2016-01-23T08:45:33Z</time>
      </trkpt>
      <trkpt lat="43.96795" lon="5.06854">
        <ele>149.1416016</ele>
        <time>2016-01-23T08:45:44Z</time>
      </trkpt>
      <trkpt lat="43.9678" lon="5.0685">
        <ele>150.1030273</ele>
        <time>2016-01-23T08:45:50Z</time>
      </trkpt>
      <trkpt lat="43.96772" lon="5.06849">
        <ele>150.5836182</ele>
        <time>2016-01-23T08:45:53Z</time>
      </trkpt>
      <trkpt lat="43.9675" lon="5.06845">
        <ele>151.064209</ele>
        <time>2016-01-23T08:46:02Z</time>
      </trkpt>
      <trkpt lat="43.96732" lon="5.06881">
        <ele>149.1416016</ele>
        <time>2016-01-23T08:46:10Z</time>
      </trkpt>
      <trkpt lat="43.96726" lon="5.06897">
        <ele>148.6610107</ele>
        <time>2016-01-23T08:46:15Z</time>
      </trkpt>
      <trkpt lat="43.96722" lon="5.06918">
        <ele>150.1030273</ele>
        <time>2016-01-23T08:46:26Z</time>
      </trkpt>
      <trkpt lat="43.96725" lon="5.06925">
        <ele>151.5449219</ele>
        <time>2016-01-23T08:46:29Z</time>
      </trkpt>
      <trkpt lat="43.96727" lon="5.06929">
        <ele>151.5449219</ele>
        <time>2016-01-23T08:46:32Z</time>
      </trkpt>
      <trkpt lat="43.96728" lon="5.06936">
        <ele>154.4289551</ele>
        <time>2016-01-23T08:46:36Z</time>
      </trkpt>
      <trkpt lat="43.96724" lon="5.06939">
        <ele>155.3902588</ele>
        <time>2016-01-23T08:46:39Z</time>
      </trkpt>
      <trkpt lat="43.96728" lon="5.06964">
        <ele>160.1968994</ele>
        <time>2016-01-23T08:46:49Z</time>
      </trkpt>
      <trkpt lat="43.96731" lon="5.06971">
        <ele>160.6774902</ele>
        <time>2016-01-23T08:46:53Z</time>
      </trkpt>
      <trkpt lat="43.96731" lon="5.06975">
        <ele>161.638916</ele>
        <time>2016-01-23T08:46:55Z</time>
      </trkpt>
      <trkpt lat="43.96719" lon="5.06965">
        <ele>164.5227051</ele>
        <time>2016-01-23T08:47:04Z</time>
      </trkpt>
      <trkpt lat="43.96698" lon="5.06947">
        <ele>169.3294678</ele>
        <time>2016-01-23T08:47:20Z</time>
      </trkpt>
      <trkpt lat="43.96676" lon="5.06931">
        <ele>174.6165771</ele>
        <time>2016-01-23T08:47:37Z</time>
      </trkpt>
      <trkpt lat="43.96657" lon="5.06915">
        <ele>177.5006104</ele>
        <time>2016-01-23T08:47:52Z</time>
      </trkpt>
      <trkpt lat="43.96637" lon="5.06903">
        <ele>181.3458252</ele>
        <time>2016-01-23T08:48:08Z</time>
      </trkpt>
      <trkpt lat="43.9663" lon="5.06899">
        <ele>184.7105713</ele>
        <time>2016-01-23T08:48:15Z</time>
      </trkpt>
      <trkpt lat="43.96616" lon="5.06894">
        <ele>183.2684326</ele>
        <time>2016-01-23T08:48:25Z</time>
      </trkpt>
      <trkpt lat="43.96595" lon="5.06881">
        <ele>185.1911621</ele>
        <time>2016-01-23T08:48:42Z</time>
      </trkpt>
      <trkpt lat="43.96571" lon="5.06871">
        <ele>184.2298584</ele>
        <time>2016-01-23T08:48:57Z</time>
      </trkpt>
      <trkpt lat="43.96532" lon="5.06868">
        <ele>183.7490234</ele>
        <time>2016-01-23T08:49:10Z</time>
      </trkpt>
      <trkpt lat="43.96494" lon="5.06873">
        <ele>186.1524658</ele>
        <time>2016-01-23T08:49:25Z</time>
      </trkpt>
      <trkpt lat="43.96465" lon="5.06857">
        <ele>183.2684326</ele>
        <time>2016-01-23T08:49:36Z</time>
      </trkpt>
      <trkpt lat="43.96456" lon="5.06823">
        <ele>183.2684326</ele>
        <time>2016-01-23T08:49:45Z</time>
      </trkpt>
      <trkpt lat="43.96466" lon="5.06787">
        <ele>179.9038086</ele>
        <time>2016-01-23T08:49:55Z</time>
      </trkpt>
      <trkpt lat="43.96481" lon="5.06778">
        <ele>177.5006104</ele>
        <time>2016-01-23T08:50:00Z</time>
      </trkpt>
      <trkpt lat="43.96483" lon="5.06763">
        <ele>177.0200195</ele>
        <time>2016-01-23T08:50:04Z</time>
      </trkpt>
      <trkpt lat="43.96499" lon="5.06736">
        <ele>175.5778809</ele>
        <time>2016-01-23T08:50:12Z</time>
      </trkpt>
      <trkpt lat="43.96507" lon="5.06729">
        <ele>175.5778809</ele>
        <time>2016-01-23T08:50:15Z</time>
      </trkpt>
      <trkpt lat="43.96509" lon="5.06715">
        <ele>175.5778809</ele>
        <time>2016-01-23T08:50:20Z</time>
      </trkpt>
      <trkpt lat="43.96506" lon="5.06713">
        <ele>176.0585938</ele>
        <time>2016-01-23T08:50:23Z</time>
      </trkpt>
      <trkpt lat="43.96506" lon="5.06699">
        <ele>176.0585938</ele>
        <time>2016-01-23T08:50:28Z</time>
      </trkpt>
      <trkpt lat="43.96511" lon="5.06688">
        <ele>175.09729</ele>
        <time>2016-01-23T08:50:32Z</time>
      </trkpt>
      <trkpt lat="43.96508" lon="5.06659">
        <ele>171.2520752</ele>
        <time>2016-01-23T08:50:39Z</time>
      </trkpt>
      <trkpt lat="43.96498" lon="5.06651">
        <ele>169.3294678</ele>
        <time>2016-01-23T08:50:42Z</time>
      </trkpt>
      <trkpt lat="43.96504" lon="5.06629">
        <ele>168.368042</ele>
        <time>2016-01-23T08:50:48Z</time>
      </trkpt>
      <trkpt lat="43.96511" lon="5.0663">
        <ele>169.8100586</ele>
        <time>2016-01-23T08:50:52Z</time>
      </trkpt>
      <trkpt lat="43.96518" lon="5.06636">
        <ele>173.6552734</ele>
        <time>2016-01-23T08:50:57Z</time>
      </trkpt>
      <trkpt lat="43.96526" lon="5.06632">
        <ele>175.5778809</ele>
        <time>2016-01-23T08:51:03Z</time>
      </trkpt>
      <trkpt lat="43.96532" lon="5.06628">
        <ele>177.0200195</ele>
        <time>2016-01-23T08:51:15Z</time>
      </trkpt>
      <trkpt lat="43.96536" lon="5.06626">
        <ele>177.0200195</ele>
        <time>2016-01-23T08:51:26Z</time>
      </trkpt>
      <trkpt lat="43.96543" lon="5.06624">
        <ele>177.9812012</ele>
        <time>2016-01-23T08:51:31Z</time>
      </trkpt>
      <trkpt lat="43.96544" lon="5.06626">
        <ele>178.942627</ele>
        <time>2016-01-23T08:51:33Z</time>
      </trkpt>
      <trkpt lat="43.96546" lon="5.06629">
        <ele>179.9038086</ele>
        <time>2016-01-23T08:51:35Z</time>
      </trkpt>
      <trkpt lat="43.96551" lon="5.06632">
        <ele>182.3071289</ele>
        <time>2016-01-23T08:51:41Z</time>
      </trkpt>
      <trkpt lat="43.96553" lon="5.06638">
        <ele>183.7490234</ele>
        <time>2016-01-23T08:51:46Z</time>
      </trkpt>
      <trkpt lat="43.96557" lon="5.06641">
        <ele>183.7490234</ele>
        <time>2016-01-23T08:51:49Z</time>
      </trkpt>
      <trkpt lat="43.96562" lon="5.06639">
        <ele>184.7105713</ele>
        <time>2016-01-23T08:51:53Z</time>
      </trkpt>
      <trkpt lat="43.96566" lon="5.06639">
        <ele>187.5943604</ele>
        <time>2016-01-23T08:52:07Z</time>
      </trkpt>
      <trkpt lat="43.96566" lon="5.06639">
        <ele>188.0750732</ele>
        <time>2016-01-23T08:52:15Z</time>
      </trkpt>
      <trkpt lat="43.96577" lon="5.06654">
        <ele>191.4395752</ele>
        <time>2016-01-23T08:52:26Z</time>
      </trkpt>
      <trkpt lat="43.96576" lon="5.06657">
        <ele>191.9202881</ele>
        <time>2016-01-23T08:52:27Z</time>
      </trkpt>
      <trkpt lat="43.96571" lon="5.06667">
        <ele>191.9202881</ele>
        <time>2016-01-23T08:52:30Z</time>
      </trkpt>
      <trkpt lat="43.96577" lon="5.06686">
        <ele>190.4783936</ele>
        <time>2016-01-23T08:52:36Z</time>
      </trkpt>
      <trkpt lat="43.96583" lon="5.06694">
        <ele>191.4395752</ele>
        <time>2016-01-23T08:52:42Z</time>
      </trkpt>
      <trkpt lat="43.96595" lon="5.0672">
        <ele>192.401123</ele>
        <time>2016-01-23T08:52:57Z</time>
      </trkpt>
      <trkpt lat="43.96611" lon="5.06728">
        <ele>193.8430176</ele>
        <time>2016-01-23T08:53:08Z</time>
      </trkpt>
      <trkpt lat="43.96612" lon="5.06728">
        <ele>194.3237305</ele>
        <time>2016-01-23T08:53:09Z</time>
      </trkpt>
      <trkpt lat="43.96626" lon="5.06727">
        <ele>196.2463379</ele>
        <time>2016-01-23T08:53:22Z</time>
      </trkpt>
      <trkpt lat="43.96631" lon="5.06728">
        <ele>197.6882324</ele>
        <time>2016-01-23T08:53:25Z</time>
      </trkpt>
      <trkpt lat="43.96636" lon="5.06724">
        <ele>198.6495361</ele>
        <time>2016-01-23T08:53:30Z</time>
      </trkpt>
      <trkpt lat="43.96646" lon="5.06722">
        <ele>200.5722656</ele>
        <time>2016-01-23T08:53:37Z</time>
      </trkpt>
      <trkpt lat="43.96648" lon="5.06718">
        <ele>202.0142822</ele>
        <time>2016-01-23T08:53:41Z</time>
      </trkpt>
      <trkpt lat="43.9665" lon="5.06715">
        <ele>202.0142822</ele>
        <time>2016-01-23T08:53:43Z</time>
      </trkpt>
      <trkpt lat="43.96653" lon="5.0671">
        <ele>202.9754639</ele>
        <time>2016-01-23T08:53:55Z</time>
      </trkpt>
      <trkpt lat="43.96666" lon="5.06709">
        <ele>204.4174805</ele>
        <time>2016-01-23T08:54:06Z</time>
      </trkpt>
      <trkpt lat="43.96666" lon="5.06709">
        <ele>204.8980713</ele>
        <time>2016-01-23T08:54:31Z</time>
      </trkpt>
      <trkpt lat="43.96675" lon="5.06701">
        <ele>206.3400879</ele>
        <time>2016-01-23T08:55:54Z</time>
      </trkpt>
      <trkpt lat="43.96689" lon="5.06694">
        <ele>207.3013916</ele>
        <time>2016-01-23T08:56:02Z</time>
      </trkpt>
      <trkpt lat="43.96691" lon="5.06694">
        <ele>207.3013916</ele>
        <time>2016-01-23T08:56:03Z</time>
      </trkpt>
      <trkpt lat="43.96707" lon="5.06696">
        <ele>206.8206787</ele>
        <time>2016-01-23T08:56:12Z</time>
      </trkpt>
      <trkpt lat="43.9671" lon="5.06693">
        <ele>207.3013916</ele>
        <time>2016-01-23T08:56:14Z</time>
      </trkpt>
      <trkpt lat="43.96719" lon="5.06682">
        <ele>208.2628174</ele>
        <time>2016-01-23T08:56:22Z</time>
      </trkpt>
      <trkpt lat="43.96723" lon="5.06681">
        <ele>208.7434082</ele>
        <time>2016-01-23T08:56:24Z</time>
      </trkpt>
      <trkpt lat="43.96728" lon="5.06677">
        <ele>211.1467285</ele>
        <time>2016-01-23T08:56:28Z</time>
      </trkpt>
      <trkpt lat="43.96744" lon="5.06673">
        <ele>216.43396</ele>
        <time>2016-01-23T08:56:38Z</time>
      </trkpt>
      <trkpt lat="43.96748" lon="5.06668">
        <ele>218.8372803</ele>
        <time>2016-01-23T08:56:42Z</time>
      </trkpt>
      <trkpt lat="43.96753" lon="5.06665">
        <ele>219.798584</ele>
        <time>2016-01-23T08:56:45Z</time>
      </trkpt>
      <trkpt lat="43.96757" lon="5.0666">
        <ele>220.7598877</ele>
        <time>2016-01-23T08:56:49Z</time>
      </trkpt>
      <trkpt lat="43.96764" lon="5.06657">
        <ele>220.7598877</ele>
        <time>2016-01-23T08:56:53Z</time>
      </trkpt>
      <trkpt lat="43.96779" lon="5.06651">
        <ele>223.163208</ele>
        <time>2016-01-23T08:57:04Z</time>
      </trkpt>
      <trkpt lat="43.9678" lon="5.06648">
        <ele>223.6437988</ele>
        <time>2016-01-23T08:57:06Z</time>
      </trkpt>
      <trkpt lat="43.96787" lon="5.06649">
        <ele>223.163208</ele>
        <time>2016-01-23T08:57:10Z</time>
      </trkpt>
      <trkpt lat="43.96801" lon="5.06641">
        <ele>221.7211914</ele>
        <time>2016-01-23T08:57:20Z</time>
      </trkpt>
      <trkpt lat="43.96804" lon="5.06638">
        <ele>222.2017822</ele>
        <time>2016-01-23T08:57:22Z</time>
      </trkpt>
      <trkpt lat="43.9681" lon="5.06639">
        <ele>223.163208</ele>
        <time>2016-01-23T08:57:26Z</time>
      </trkpt>
      <trkpt lat="43.96813" lon="5.06644">
        <ele>223.6437988</ele>
        <time>2016-01-23T08:57:29Z</time>
      </trkpt>
      <trkpt lat="43.96813" lon="5.06648">
        <ele>223.6437988</ele>
        <time>2016-01-23T08:57:31Z</time>
      </trkpt>
      <trkpt lat="43.9682" lon="5.06653">
        <ele>223.163208</ele>
        <time>2016-01-23T08:57:35Z</time>
      </trkpt>
      <trkpt lat="43.96826" lon="5.06653">
        <ele>223.6437988</ele>
        <time>2016-01-23T08:57:39Z</time>
      </trkpt>
      <trkpt lat="43.96832" lon="5.06655">
        <ele>223.6437988</ele>
        <time>2016-01-23T08:57:44Z</time>
      </trkpt>
      <trkpt lat="43.9684" lon="5.06655">
        <ele>224.6052246</ele>
        <time>2016-01-23T08:57:48Z</time>
      </trkpt>
      <trkpt lat="43.96842" lon="5.06652">
        <ele>225.0859375</ele>
        <time>2016-01-23T08:57:50Z</time>
      </trkpt>
      <trkpt lat="43.96849" lon="5.06652">
        <ele>228.4504395</ele>
        <time>2016-01-23T08:57:55Z</time>
      </trkpt>
      <trkpt lat="43.96854" lon="5.06648">
        <ele>229.4117432</ele>
        <time>2016-01-23T08:57:59Z</time>
      </trkpt>
      <trkpt lat="43.9686" lon="5.06646">
        <ele>230.8537598</ele>
        <time>2016-01-23T08:58:03Z</time>
      </trkpt>
      <trkpt lat="43.96868" lon="5.06639">
        <ele>231.3343506</ele>
        <time>2016-01-23T08:58:09Z</time>
      </trkpt>
      <trkpt lat="43.96875" lon="5.06642">
        <ele>231.3343506</ele>
        <time>2016-01-23T08:58:14Z</time>
      </trkpt>
      <trkpt lat="43.96892" lon="5.0664">
        <ele>231.3343506</ele>
        <time>2016-01-23T08:58:25Z</time>
      </trkpt>
      <trkpt lat="43.96902" lon="5.06635">
        <ele>232.7764893</ele>
        <time>2016-01-23T08:58:31Z</time>
      </trkpt>
      <trkpt lat="43.96924" lon="5.06633">
        <ele>235.1796875</ele>
        <time>2016-01-23T08:58:45Z</time>
      </trkpt>
      <trkpt lat="43.96931" lon="5.06628">
        <ele>235.1796875</ele>
        <time>2016-01-23T08:58:53Z</time>
      </trkpt>
      <trkpt lat="43.96935" lon="5.06626">
        <ele>234.6990967</ele>
        <time>2016-01-23T08:59:04Z</time>
      </trkpt>
      <trkpt lat="43.96941" lon="5.06622">
        <ele>235.1796875</ele>
        <time>2016-01-23T08:59:13Z</time>
      </trkpt>
      <trkpt lat="43.96947" lon="5.06617">
        <ele>236.1409912</ele>
        <time>2016-01-23T08:59:23Z</time>
      </trkpt>
      <trkpt lat="43.96953" lon="5.06614">
        <ele>236.1409912</ele>
        <time>2016-01-23T08:59:34Z</time>
      </trkpt>
      <trkpt lat="43.96953" lon="5.06606">
        <ele>235.6602783</ele>
        <time>2016-01-23T08:59:43Z</time>
      </trkpt>
      <trkpt lat="43.96956" lon="5.06604">
        <ele>237.1022949</ele>
        <time>2016-01-23T08:59:54Z</time>
      </trkpt>
      <trkpt lat="43.96957" lon="5.06603">
        <ele>237.5828857</ele>
        <time>2016-01-23T08:59:55Z</time>
      </trkpt>
      <trkpt lat="43.96961" lon="5.06601">
        <ele>238.5443115</ele>
        <time>2016-01-23T09:00:00Z</time>
      </trkpt>
      <trkpt lat="43.96966" lon="5.06599">
        <ele>238.5443115</ele>
        <time>2016-01-23T09:00:04Z</time>
      </trkpt>
      <trkpt lat="43.96981" lon="5.06592">
        <ele>240.9476318</ele>
        <time>2016-01-23T09:00:14Z</time>
      </trkpt>
      <trkpt lat="43.96987" lon="5.06586">
        <ele>241.4282227</ele>
        <time>2016-01-23T09:00:19Z</time>
      </trkpt>
      <trkpt lat="43.96997" lon="5.06583">
        <ele>244.3122559</ele>
        <time>2016-01-23T09:00:26Z</time>
      </trkpt>
      <trkpt lat="43.97014" lon="5.06575">
        <ele>245.2734375</ele>
        <time>2016-01-23T09:00:39Z</time>
      </trkpt>
      <trkpt lat="43.97017" lon="5.0657">
        <ele>246.7154541</ele>
        <time>2016-01-23T09:00:42Z</time>
      </trkpt>
      <trkpt lat="43.97022" lon="5.06568">
        <ele>248.1575928</ele>
        <time>2016-01-23T09:00:45Z</time>
      </trkpt>
      <trkpt lat="43.97037" lon="5.06554">
        <ele>250.0802002</ele>
        <time>2016-01-23T09:00:56Z</time>
      </trkpt>
      <trkpt lat="43.97048" lon="5.06549">
        <ele>247.6767578</ele>
        <time>2016-01-23T09:01:03Z</time>
      </trkpt>
      <trkpt lat="43.97053" lon="5.06538">
        <ele>247.1960449</ele>
        <time>2016-01-23T09:01:07Z</time>
      </trkpt>
      <trkpt lat="43.97054" lon="5.0652">
        <ele>245.2734375</ele>
        <time>2016-01-23T09:01:12Z</time>
      </trkpt>
      <trkpt lat="43.97042" lon="5.06492">
        <ele>241.9089355</ele>
        <time>2016-01-23T09:01:19Z</time>
      </trkpt>
      <trkpt lat="43.97042" lon="5.06473">
        <ele>239.9862061</ele>
        <time>2016-01-23T09:01:24Z</time>
      </trkpt>
      <trkpt lat="43.97043" lon="5.06451">
        <ele>237.5828857</ele>
        <time>2016-01-23T09:01:29Z</time>
      </trkpt>
      <trkpt lat="43.97042" lon="5.06443">
        <ele>236.1409912</ele>
        <time>2016-01-23T09:01:31Z</time>
      </trkpt>
      <trkpt lat="43.9704" lon="5.06421">
        <ele>234.6990967</ele>
        <time>2016-01-23T09:01:37Z</time>
      </trkpt>
      <trkpt lat="43.9705" lon="5.0638">
        <ele>232.7764893</ele>
        <time>2016-01-23T09:01:48Z</time>
      </trkpt>
      <trkpt lat="43.97062" lon="5.06366">
        <ele>234.2183838</ele>
        <time>2016-01-23T09:01:54Z</time>
      </trkpt>
      <trkpt lat="43.97066" lon="5.06345">
        <ele>234.2183838</ele>
        <time>2016-01-23T09:01:59Z</time>
      </trkpt>
      <trkpt lat="43.97062" lon="5.06325">
        <ele>232.7764893</ele>
        <time>2016-01-23T09:02:03Z</time>
      </trkpt>
      <trkpt lat="43.97068" lon="5.06311">
        <ele>231.3343506</ele>
        <time>2016-01-23T09:02:07Z</time>
      </trkpt>
      <trkpt lat="43.9707" lon="5.06293">
        <ele>227.9697266</ele>
        <time>2016-01-23T09:02:11Z</time>
      </trkpt>
      <trkpt lat="43.97071" lon="5.06285">
        <ele>226.527832</ele>
        <time>2016-01-23T09:02:13Z</time>
      </trkpt>
      <trkpt lat="43.97074" lon="5.0626">
        <ele>225.5665283</ele>
        <time>2016-01-23T09:02:19Z</time>
      </trkpt>
      <trkpt lat="43.97074" lon="5.06255">
        <ele>225.0859375</ele>
        <time>2016-01-23T09:02:20Z</time>
      </trkpt>
      <trkpt lat="43.97076" lon="5.06242">
        <ele>225.0859375</ele>
        <time>2016-01-23T09:02:23Z</time>
      </trkpt>
      <trkpt lat="43.97072" lon="5.06229">
        <ele>220.7598877</ele>
        <time>2016-01-23T09:02:27Z</time>
      </trkpt>
      <trkpt lat="43.97068" lon="5.0622">
        <ele>221.2406006</ele>
        <time>2016-01-23T09:02:29Z</time>
      </trkpt>
      <trkpt lat="43.97055" lon="5.06218">
        <ele>221.7211914</ele>
        <time>2016-01-23T09:02:33Z</time>
      </trkpt>
      <trkpt lat="43.97038" lon="5.06222">
        <ele>223.6437988</ele>
        <time>2016-01-23T09:02:42Z</time>
      </trkpt>
      <trkpt lat="43.97037" lon="5.06223">
        <ele>224.1245117</ele>
        <time>2016-01-23T09:02:52Z</time>
      </trkpt>
      <trkpt lat="43.97025" lon="5.0622">
        <ele>224.1245117</ele>
        <time>2016-01-23T09:02:59Z</time>
      </trkpt>
      <trkpt lat="43.97014" lon="5.06211">
        <ele>222.6824951</ele>
        <time>2016-01-23T09:03:03Z</time>
      </trkpt>
      <trkpt lat="43.9701" lon="5.06229">
        <ele>221.2406006</ele>
        <time>2016-01-23T09:03:09Z</time>
      </trkpt>
      <trkpt lat="43.97009" lon="5.06267">
        <ele>215.9532471</ele>
        <time>2016-01-23T09:03:17Z</time>
      </trkpt>
      <trkpt lat="43.97001" lon="5.06309">
        <ele>213.0693359</ele>
        <time>2016-01-23T09:03:24Z</time>
      </trkpt>
      <trkpt lat="43.96992" lon="5.06329">
        <ele>211.6274414</ele>
        <time>2016-01-23T09:03:29Z</time>
      </trkpt>
      <trkpt lat="43.96976" lon="5.06338">
        <ele>211.1467285</ele>
        <time>2016-01-23T09:03:34Z</time>
      </trkpt>
      <trkpt lat="43.96963" lon="5.06332">
        <ele>212.588623</ele>
        <time>2016-01-23T09:03:39Z</time>
      </trkpt>
      <trkpt lat="43.9696" lon="5.06341">
        <ele>212.1080322</ele>
        <time>2016-01-23T09:03:41Z</time>
      </trkpt>
      <trkpt lat="43.96951" lon="5.06353">
        <ele>211.6274414</ele>
        <time>2016-01-23T09:03:45Z</time>
      </trkpt>
      <trkpt lat="43.96948" lon="5.0638">
        <ele>213.0693359</ele>
        <time>2016-01-23T09:03:52Z</time>
      </trkpt>
      <trkpt lat="43.96937" lon="5.06395">
        <ele>213.0693359</ele>
        <time>2016-01-23T09:03:57Z</time>
      </trkpt>
      <trkpt lat="43.96923" lon="5.06409">
        <ele>211.6274414</ele>
        <time>2016-01-23T09:04:02Z</time>
      </trkpt>
      <trkpt lat="43.96919" lon="5.06418">
        <ele>211.6274414</ele>
        <time>2016-01-23T09:04:04Z</time>
      </trkpt>
      <trkpt lat="43.96897" lon="5.0642">
        <ele>209.2241211</ele>
        <time>2016-01-23T09:04:11Z</time>
      </trkpt>
      <trkpt lat="43.96868" lon="5.06416">
        <ele>205.8594971</ele>
        <time>2016-01-23T09:04:18Z</time>
      </trkpt>
      <trkpt lat="43.96833" lon="5.06385">
        <ele>202.494873</ele>
        <time>2016-01-23T09:04:27Z</time>
      </trkpt>
      <trkpt lat="43.96813" lon="5.06365">
        <ele>200.5722656</ele>
        <time>2016-01-23T09:04:35Z</time>
      </trkpt>
      <trkpt lat="43.96809" lon="5.06361">
        <ele>199.130127</ele>
        <time>2016-01-23T09:04:37Z</time>
      </trkpt>
      <trkpt lat="43.96801" lon="5.06358">
        <ele>199.130127</ele>
        <time>2016-01-23T09:04:42Z</time>
      </trkpt>
      <trkpt lat="43.96793" lon="5.06366">
        <ele>200.5722656</ele>
        <time>2016-01-23T09:04:47Z</time>
      </trkpt>
      <trkpt lat="43.9679" lon="5.0639">
        <ele>204.4174805</ele>
        <time>2016-01-23T09:04:58Z</time>
      </trkpt>
      <trkpt lat="43.96791" lon="5.06393">
        <ele>203.4561768</ele>
        <time>2016-01-23T09:04:59Z</time>
      </trkpt>
      <trkpt lat="43.96786" lon="5.06398">
        <ele>203.9368896</ele>
        <time>2016-01-23T09:05:03Z</time>
      </trkpt>
      <trkpt lat="43.96777" lon="5.06423">
        <ele>202.9754639</ele>
        <time>2016-01-23T09:05:14Z</time>
      </trkpt>
      <trkpt lat="43.96772" lon="5.06433">
        <ele>202.494873</ele>
        <time>2016-01-23T09:05:18Z</time>
      </trkpt>
      <trkpt lat="43.96775" lon="5.06449">
        <ele>200.0916748</ele>
        <time>2016-01-23T09:05:26Z</time>
      </trkpt>
      <trkpt lat="43.96774" lon="5.06455">
        <ele>196.7269287</ele>
        <time>2016-01-23T09:05:28Z</time>
      </trkpt>
      <trkpt lat="43.9677" lon="5.06476">
        <ele>194.3237305</ele>
        <time>2016-01-23T09:05:33Z</time>
      </trkpt>
      <trkpt lat="43.9676" lon="5.06518">
        <ele>195.2849121</ele>
        <time>2016-01-23T09:05:43Z</time>
      </trkpt>
      <trkpt lat="43.9675" lon="5.0653">
        <ele>194.8043213</ele>
        <time>2016-01-23T09:05:48Z</time>
      </trkpt>
      <trkpt lat="43.9674" lon="5.06538">
        <ele>193.8430176</ele>
        <time>2016-01-23T09:05:51Z</time>
      </trkpt>
      <trkpt lat="43.96731" lon="5.06556">
        <ele>196.2463379</ele>
        <time>2016-01-23T09:05:58Z</time>
      </trkpt>
      <trkpt lat="43.96727" lon="5.06561">
        <ele>196.2463379</ele>
        <time>2016-01-23T09:06:00Z</time>
      </trkpt>
      <trkpt lat="43.96719" lon="5.06573">
        <ele>196.2463379</ele>
        <time>2016-01-23T09:06:04Z</time>
      </trkpt>
      <trkpt lat="43.96713" lon="5.06578">
        <ele>196.7269287</ele>
        <time>2016-01-23T09:06:07Z</time>
      </trkpt>
      <trkpt lat="43.9671" lon="5.06583">
        <ele>197.6882324</ele>
        <time>2016-01-23T09:06:09Z</time>
      </trkpt>
      <trkpt lat="43.96705" lon="5.06587">
        <ele>198.1689453</ele>
        <time>2016-01-23T09:06:12Z</time>
      </trkpt>
      <trkpt lat="43.96691" lon="5.0659">
        <ele>197.6882324</ele>
        <time>2016-01-23T09:06:18Z</time>
      </trkpt>
      <trkpt lat="43.96686" lon="5.06591">
        <ele>197.6882324</ele>
        <time>2016-01-23T09:06:20Z</time>
      </trkpt>
      <trkpt lat="43.96675" lon="5.06593">
        <ele>198.6495361</ele>
        <time>2016-01-23T09:06:24Z</time>
      </trkpt>
      <trkpt lat="43.96653" lon="5.06589">
        <ele>198.6495361</ele>
        <time>2016-01-23T09:06:31Z</time>
      </trkpt>
      <trkpt lat="43.96645" lon="5.06576">
        <ele>195.765625</ele>
        <time>2016-01-23T09:06:37Z</time>
      </trkpt>
      <trkpt lat="43.96643" lon="5.06568">
        <ele>194.8043213</ele>
        <time>2016-01-23T09:06:41Z</time>
      </trkpt>
      <trkpt lat="43.96648" lon="5.06554">
        <ele>192.401123</ele>
        <time>2016-01-23T09:06:45Z</time>
      </trkpt>
      <trkpt lat="43.96643" lon="5.06536">
        <ele>189.9976807</ele>
        <time>2016-01-23T09:06:51Z</time>
      </trkpt>
      <trkpt lat="43.96644" lon="5.06533">
        <ele>189.9976807</ele>
        <time>2016-01-23T09:06:52Z</time>
      </trkpt>
      <trkpt lat="43.96643" lon="5.06518">
        <ele>188.0750732</ele>
        <time>2016-01-23T09:06:55Z</time>
      </trkpt>
      <trkpt lat="43.96639" lon="5.06511">
        <ele>187.5943604</ele>
        <time>2016-01-23T09:06:57Z</time>
      </trkpt>
      <trkpt lat="43.96639" lon="5.06497">
        <ele>187.1137695</ele>
        <time>2016-01-23T09:07:00Z</time>
      </trkpt>
      <trkpt lat="43.96635" lon="5.06489">
        <ele>185.6717529</ele>
        <time>2016-01-23T09:07:02Z</time>
      </trkpt>
      <trkpt lat="43.96631" lon="5.06472">
        <ele>184.2298584</ele>
        <time>2016-01-23T09:07:06Z</time>
      </trkpt>
      <trkpt lat="43.96634" lon="5.06463">
        <ele>183.7490234</ele>
        <time>2016-01-23T09:07:09Z</time>
      </trkpt>
      <trkpt lat="43.96634" lon="5.06434">
        <ele>181.826416</ele>
        <time>2016-01-23T09:07:14Z</time>
      </trkpt>
      <trkpt lat="43.9663" lon="5.06403">
        <ele>180.3845215</ele>
        <time>2016-01-23T09:07:20Z</time>
      </trkpt>
      <trkpt lat="43.96612" lon="5.06378">
        <ele>178.4619141</ele>
        <time>2016-01-23T09:07:25Z</time>
      </trkpt>
      <trkpt lat="43.96606" lon="5.0637">
        <ele>177.0200195</ele>
        <time>2016-01-23T09:07:27Z</time>
      </trkpt>
      <trkpt lat="43.966" lon="5.06358">
        <ele>176.0585938</ele>
        <time>2016-01-23T09:07:33Z</time>
      </trkpt>
      <trkpt lat="43.96601" lon="5.06355">
        <ele>176.0585938</ele>
        <time>2016-01-23T09:07:34Z</time>
      </trkpt>
      <trkpt lat="43.96605" lon="5.06304">
        <ele>172.6939697</ele>
        <time>2016-01-23T09:07:45Z</time>
      </trkpt>
      <trkpt lat="43.96599" lon="5.06238">
        <ele>166.4453125</ele>
        <time>2016-01-23T09:07:54Z</time>
      </trkpt>
      <trkpt lat="43.96595" lon="5.0622">
        <ele>164.0421143</ele>
        <time>2016-01-23T09:07:57Z</time>
      </trkpt>
      <trkpt lat="43.96608" lon="5.06199">
        <ele>161.638916</ele>
        <time>2016-01-23T09:08:02Z</time>
      </trkpt>
      <trkpt lat="43.96628" lon="5.06194">
        <ele>160.1968994</ele>
        <time>2016-01-23T09:08:09Z</time>
      </trkpt>
      <trkpt lat="43.96648" lon="5.06202">
        <ele>162.1195068</ele>
        <time>2016-01-23T09:08:21Z</time>
      </trkpt>
      <trkpt lat="43.96671" lon="5.06212">
        <ele>166.9260254</ele>
        <time>2016-01-23T09:08:34Z</time>
      </trkpt>
      <trkpt lat="43.96695" lon="5.06226">
        <ele>170.2906494</ele>
        <time>2016-01-23T09:08:50Z</time>
      </trkpt>
      <trkpt lat="43.96719" lon="5.0624">
        <ele>173.6552734</ele>
        <time>2016-01-23T09:09:06Z</time>
      </trkpt>
      <trkpt lat="43.96731" lon="5.06244">
        <ele>175.5778809</ele>
        <time>2016-01-23T09:09:13Z</time>
      </trkpt>
      <trkpt lat="43.96749" lon="5.0626">
        <ele>180.3845215</ele>
        <time>2016-01-23T09:09:26Z</time>
      </trkpt>
      <trkpt lat="43.96751" lon="5.06263">
        <ele>181.3458252</ele>
        <time>2016-01-23T09:09:28Z</time>
      </trkpt>
      <trkpt lat="43.96766" lon="5.06252">
        <ele>177.9812012</ele>
        <time>2016-01-23T09:09:36Z</time>
      </trkpt>
      <trkpt lat="43.96776" lon="5.06241">
        <ele>176.0585938</ele>
        <time>2016-01-23T09:09:39Z</time>
      </trkpt>
      <trkpt lat="43.96789" lon="5.06221">
        <ele>174.1358643</ele>
        <time>2016-01-23T09:09:44Z</time>
      </trkpt>
      <trkpt lat="43.96791" lon="5.06214">
        <ele>174.1358643</ele>
        <time>2016-01-23T09:09:46Z</time>
      </trkpt>
      <trkpt lat="43.96786" lon="5.0619">
        <ele>173.1746826</ele>
        <time>2016-01-23T09:09:51Z</time>
      </trkpt>
      <trkpt lat="43.96785" lon="5.06165">
        <ele>173.6552734</ele>
        <time>2016-01-23T09:09:56Z</time>
      </trkpt>
      <trkpt lat="43.96788" lon="5.06163">
        <ele>173.6552734</ele>
        <time>2016-01-23T09:09:58Z</time>
      </trkpt>
      <trkpt lat="43.96787" lon="5.0614">
        <ele>171.732666</ele>
        <time>2016-01-23T09:10:08Z</time>
      </trkpt>
      <trkpt lat="43.96778" lon="5.06119">
        <ele>167.4067383</ele>
        <time>2016-01-23T09:10:16Z</time>
      </trkpt>
      <trkpt lat="43.96776" lon="5.06115">
        <ele>167.4067383</ele>
        <time>2016-01-23T09:10:17Z</time>
      </trkpt>
      <trkpt lat="43.96768" lon="5.06111">
        <ele>167.4067383</ele>
        <time>2016-01-23T09:10:24Z</time>
      </trkpt>
      <trkpt lat="43.96768" lon="5.06111">
        <ele>167.4067383</ele>
        <time>2016-01-23T09:10:30Z</time>
      </trkpt>
      <trkpt lat="43.96756" lon="5.06092">
        <ele>168.368042</ele>
        <time>2016-01-23T09:10:37Z</time>
      </trkpt>
      <trkpt lat="43.96753" lon="5.06093">
        <ele>167.8873291</ele>
        <time>2016-01-23T09:10:38Z</time>
      </trkpt>
      <trkpt lat="43.96725" lon="5.0608">
        <ele>163.0808105</ele>
        <time>2016-01-23T09:10:46Z</time>
      </trkpt>
      <trkpt lat="43.96716" lon="5.06077">
        <ele>161.638916</ele>
        <time>2016-01-23T09:10:48Z</time>
      </trkpt>
      <trkpt lat="43.96677" lon="5.0606">
        <ele>160.1968994</ele>
        <time>2016-01-23T09:10:57Z</time>
      </trkpt>
      <trkpt lat="43.96652" lon="5.06047">
        <ele>158.2741699</ele>
        <time>2016-01-23T09:11:03Z</time>
      </trkpt>
      <trkpt lat="43.9664" lon="5.06041">
        <ele>157.7935791</ele>
        <time>2016-01-23T09:11:06Z</time>
      </trkpt>
      <trkpt lat="43.96612" lon="5.0603">
        <ele>155.3902588</ele>
        <time>2016-01-23T09:11:12Z</time>
      </trkpt>
      <trkpt lat="43.96599" lon="5.06021">
        <ele>154.4289551</ele>
        <time>2016-01-23T09:11:15Z</time>
      </trkpt>
      <trkpt lat="43.96593" lon="5.06018">
        <ele>152.9869385</ele>
        <time>2016-01-23T09:11:17Z</time>
      </trkpt>
      <trkpt lat="43.96578" lon="5.06013">
        <ele>150.1030273</ele>
        <time>2016-01-23T09:11:22Z</time>
      </trkpt>
      <trkpt lat="43.96556" lon="5.0602">
        <ele>148.1804199</ele>
        <time>2016-01-23T09:11:28Z</time>
      </trkpt>
      <trkpt lat="43.96553" lon="5.06011">
        <ele>146.2578125</ele>
        <time>2016-01-23T09:11:33Z</time>
      </trkpt>
      <trkpt lat="43.96552" lon="5.06002">
        <ele>146.7384033</ele>
        <time>2016-01-23T09:11:38Z</time>
      </trkpt>
      <trkpt lat="43.96557" lon="5.05972">
        <ele>147.699707</ele>
        <time>2016-01-23T09:11:49Z</time>
      </trkpt>
      <trkpt lat="43.96559" lon="5.05966">
        <ele>148.1804199</ele>
        <time>2016-01-23T09:11:51Z</time>
      </trkpt>
      <trkpt lat="43.96554" lon="5.05945">
        <ele>147.699707</ele>
        <time>2016-01-23T09:11:57Z</time>
      </trkpt>
      <trkpt lat="43.96544" lon="5.05934">
        <ele>146.2578125</ele>
        <time>2016-01-23T09:12:01Z</time>
      </trkpt>
      <trkpt lat="43.96534" lon="5.05916">
        <ele>144.8157959</ele>
        <time>2016-01-23T09:12:05Z</time>
      </trkpt>
      <trkpt lat="43.9653" lon="5.05895">
        <ele>144.3352051</ele>
        <time>2016-01-23T09:12:09Z</time>
      </trkpt>
      <trkpt lat="43.96522" lon="5.05882">
        <ele>144.8157959</ele>
        <time>2016-01-23T09:12:12Z</time>
      </trkpt>
      <trkpt lat="43.96515" lon="5.05866">
        <ele>143.8543701</ele>
        <time>2016-01-23T09:12:15Z</time>
      </trkpt>
      <trkpt lat="43.96508" lon="5.05854">
        <ele>142.8930664</ele>
        <time>2016-01-23T09:12:17Z</time>
      </trkpt>
      <trkpt lat="43.96491" lon="5.05817">
        <ele>142.8930664</ele>
        <time>2016-01-23T09:12:22Z</time>
      </trkpt>
      <trkpt lat="43.96486" lon="5.05797">
        <ele>143.3736572</ele>
        <time>2016-01-23T09:12:25Z</time>
      </trkpt>
      <trkpt lat="43.9647" lon="5.05773">
        <ele>141.4510498</ele>
        <time>2016-01-23T09:12:30Z</time>
      </trkpt>
      <trkpt lat="43.9647" lon="5.05758">
        <ele>140.970459</ele>
        <time>2016-01-23T09:12:33Z</time>
      </trkpt>
      <trkpt lat="43.96461" lon="5.0574">
        <ele>138.5672607</ele>
        <time>2016-01-23T09:12:37Z</time>
      </trkpt>
      <trkpt lat="43.96454" lon="5.05739">
        <ele>137.1252441</ele>
        <time>2016-01-23T09:12:39Z</time>
      </trkpt>
      <trkpt lat="43.96439" lon="5.05715">
        <ele>134.2412109</ele>
        <time>2016-01-23T09:12:44Z</time>
      </trkpt>
      <trkpt lat="43.96428" lon="5.057">
        <ele>133.2799072</ele>
        <time>2016-01-23T09:12:47Z</time>
      </trkpt>
      <trkpt lat="43.96419" lon="5.05667">
        <ele>132.3186035</ele>
        <time>2016-01-23T09:12:52Z</time>
      </trkpt>
      <trkpt lat="43.96417" lon="5.05639">
        <ele>131.3572998</ele>
        <time>2016-01-23T09:12:56Z</time>
      </trkpt>
      <trkpt lat="43.96422" lon="5.05603">
        <ele>128.9541016</ele>
        <time>2016-01-23T09:13:01Z</time>
      </trkpt>
      <trkpt lat="43.96425" lon="5.05564">
        <ele>128.4733887</ele>
        <time>2016-01-23T09:13:07Z</time>
      </trkpt>
      <trkpt lat="43.96427" lon="5.05539">
        <ele>131.3572998</ele>
        <time>2016-01-23T09:13:12Z</time>
      </trkpt>
      <trkpt lat="43.96433" lon="5.05519">
        <ele>134.2412109</ele>
        <time>2016-01-23T09:13:19Z</time>
      </trkpt>
      <trkpt lat="43.96439" lon="5.05495">
        <ele>134.7219238</ele>
        <time>2016-01-23T09:13:24Z</time>
      </trkpt>
      <trkpt lat="43.96431" lon="5.05474">
        <ele>136.6446533</ele>
        <time>2016-01-23T09:13:31Z</time>
      </trkpt>
      <trkpt lat="43.96426" lon="5.05471">
        <ele>136.1639404</ele>
        <time>2016-01-23T09:13:34Z</time>
      </trkpt>
      <trkpt lat="43.96424" lon="5.05477">
        <ele>137.605835</ele>
        <time>2016-01-23T09:13:38Z</time>
      </trkpt>
      <trkpt lat="43.96418" lon="5.0551">
        <ele>141.9317627</ele>
        <time>2016-01-23T09:13:51Z</time>
      </trkpt>
      <trkpt lat="43.9641" lon="5.05558">
        <ele>138.5672607</ele>
        <time>2016-01-23T09:14:02Z</time>
      </trkpt>
      <trkpt lat="43.96399" lon="5.05605">
        <ele>140.970459</ele>
        <time>2016-01-23T09:14:14Z</time>
      </trkpt>
      <trkpt lat="43.96396" lon="5.05644">
        <ele>142.4124756</ele>
        <time>2016-01-23T09:14:25Z</time>
      </trkpt>
      <trkpt lat="43.96408" lon="5.05696">
        <ele>143.3736572</ele>
        <time>2016-01-23T09:14:39Z</time>
      </trkpt>
      <trkpt lat="43.96426" lon="5.05739">
        <ele>139.0478516</ele>
        <time>2016-01-23T09:14:52Z</time>
      </trkpt>
      <trkpt lat="43.9645" lon="5.05767">
        <ele>139.0478516</ele>
        <time>2016-01-23T09:15:05Z</time>
      </trkpt>
      <trkpt lat="43.96477" lon="5.05803">
        <ele>140.4898682</ele>
        <time>2016-01-23T09:15:18Z</time>
      </trkpt>
      <trkpt lat="43.96493" lon="5.05842">
        <ele>141.9317627</ele>
        <time>2016-01-23T09:15:28Z</time>
      </trkpt>
      <trkpt lat="43.96514" lon="5.05886">
        <ele>145.7770996</ele>
        <time>2016-01-23T09:15:41Z</time>
      </trkpt>
      <trkpt lat="43.96525" lon="5.05912">
        <ele>147.699707</ele>
        <time>2016-01-23T09:15:50Z</time>
      </trkpt>
      <trkpt lat="43.96532" lon="5.05942">
        <ele>151.064209</ele>
        <time>2016-01-23T09:15:59Z</time>
      </trkpt>
      <trkpt lat="43.96538" lon="5.05964">
        <ele>154.4289551</ele>
        <time>2016-01-23T09:16:06Z</time>
      </trkpt>
      <trkpt lat="43.96541" lon="5.05997">
        <ele>157.7935791</ele>
        <time>2016-01-23T09:16:17Z</time>
      </trkpt>
      <trkpt lat="43.96551" lon="5.06039">
        <ele>158.2741699</ele>
        <time>2016-01-23T09:16:30Z</time>
      </trkpt>
      <trkpt lat="43.96564" lon="5.06074">
        <ele>155.8709717</ele>
        <time>2016-01-23T09:16:41Z</time>
      </trkpt>
      <trkpt lat="43.96575" lon="5.06134">
        <ele>154.4289551</ele>
        <time>2016-01-23T09:16:56Z</time>
      </trkpt>
      <trkpt lat="43.96573" lon="5.06179">
        <ele>155.3902588</ele>
        <time>2016-01-23T09:17:08Z</time>
      </trkpt>
      <trkpt lat="43.96571" lon="5.06219">
        <ele>157.3128662</ele>
        <time>2016-01-23T09:17:20Z</time>
      </trkpt>
      <trkpt lat="43.96551" lon="5.06239">
        <ele>152.9869385</ele>
        <time>2016-01-23T09:17:30Z</time>
      </trkpt>
      <trkpt lat="43.9653" lon="5.06253">
        <ele>149.1416016</ele>
        <time>2016-01-23T09:17:41Z</time>
      </trkpt>
      <trkpt lat="43.96527" lon="5.06252">
        <ele>149.6223145</ele>
        <time>2016-01-23T09:17:44Z</time>
      </trkpt>
      <trkpt lat="43.96524" lon="5.06235">
        <ele>147.2189941</ele>
        <time>2016-01-23T09:17:51Z</time>
      </trkpt>
      <trkpt lat="43.96516" lon="5.06212">
        <ele>146.7384033</ele>
        <time>2016-01-23T09:17:56Z</time>
      </trkpt>
      <trkpt lat="43.96492" lon="5.06186">
        <ele>142.8930664</ele>
        <time>2016-01-23T09:18:02Z</time>
      </trkpt>
      <trkpt lat="43.96468" lon="5.0617">
        <ele>140.0091553</ele>
        <time>2016-01-23T09:18:08Z</time>
      </trkpt>
      <trkpt lat="43.96463" lon="5.06168">
        <ele>139.5284424</ele>
        <time>2016-01-23T09:18:09Z</time>
      </trkpt>
      <trkpt lat="43.96432" lon="5.06155">
        <ele>137.605835</ele>
        <time>2016-01-23T09:18:16Z</time>
      </trkpt>
      <trkpt lat="43.96416" lon="5.06139">
        <ele>138.0865479</ele>
        <time>2016-01-23T09:18:21Z</time>
      </trkpt>
      <trkpt lat="43.96372" lon="5.06111">
        <ele>133.760498</ele>
        <time>2016-01-23T09:18:32Z</time>
      </trkpt>
      <trkpt lat="43.96363" lon="5.06103">
        <ele>132.7993164</ele>
        <time>2016-01-23T09:18:36Z</time>
      </trkpt>
      <trkpt lat="43.96359" lon="5.06098">
        <ele>131.8378906</ele>
        <time>2016-01-23T09:18:38Z</time>
      </trkpt>
      <trkpt lat="43.96352" lon="5.06093">
        <ele>131.3572998</ele>
        <time>2016-01-23T09:18:41Z</time>
      </trkpt>
      <trkpt lat="43.96341" lon="5.06077">
        <ele>129.9152832</ele>
        <time>2016-01-23T09:18:45Z</time>
      </trkpt>
      <trkpt lat="43.96314" lon="5.0605">
        <ele>125.5893555</ele>
        <time>2016-01-23T09:18:53Z</time>
      </trkpt>
      <trkpt lat="43.96302" lon="5.06042">
        <ele>125.1087646</ele>
        <time>2016-01-23T09:18:57Z</time>
      </trkpt>
      <trkpt lat="43.96277" lon="5.06025">
        <ele>126.0699463</ele>
        <time>2016-01-23T09:19:05Z</time>
      </trkpt>
      <trkpt lat="43.96269" lon="5.06022">
        <ele>126.5506592</ele>
        <time>2016-01-23T09:19:09Z</time>
      </trkpt>
      <trkpt lat="43.96249" lon="5.06009">
        <ele>126.0699463</ele>
        <time>2016-01-23T09:19:16Z</time>
      </trkpt>
      <trkpt lat="43.96237" lon="5.06008">
        <ele>126.5506592</ele>
        <time>2016-01-23T09:19:19Z</time>
      </trkpt>
      <trkpt lat="43.96215" lon="5.05998">
        <ele>127.5119629</ele>
        <time>2016-01-23T09:19:25Z</time>
      </trkpt>
      <trkpt lat="43.96203" lon="5.05979">
        <ele>127.9925537</ele>
        <time>2016-01-23T09:19:29Z</time>
      </trkpt>
      <trkpt lat="43.96196" lon="5.05963">
        <ele>127.0313721</ele>
        <time>2016-01-23T09:19:32Z</time>
      </trkpt>
      <trkpt lat="43.9618" lon="5.05927">
        <ele>126.5506592</ele>
        <time>2016-01-23T09:19:38Z</time>
      </trkpt>
      <trkpt lat="43.96172" lon="5.05917">
        <ele>124.1473389</ele>
        <time>2016-01-23T09:19:40Z</time>
      </trkpt>
      <trkpt lat="43.96101" lon="5.05837">
        <ele>115.9761963</ele>
        <time>2016-01-23T09:19:55Z</time>
      </trkpt>
      <trkpt lat="43.96079" lon="5.0582">
        <ele>113.572998</ele>
        <time>2016-01-23T09:19:59Z</time>
      </trkpt>
      <trkpt lat="43.96065" lon="5.05805">
        <ele>111.1695557</ele>
        <time>2016-01-23T09:20:02Z</time>
      </trkpt>
      <trkpt lat="43.96047" lon="5.05793">
        <ele>107.8050537</ele>
        <time>2016-01-23T09:20:07Z</time>
      </trkpt>
      <trkpt lat="43.96036" lon="5.05761">
        <ele>104.9210205</ele>
        <time>2016-01-23T09:20:15Z</time>
      </trkpt>
      <trkpt lat="43.96035" lon="5.05703">
        <ele>104.4404297</ele>
        <time>2016-01-23T09:20:26Z</time>
      </trkpt>
      <trkpt lat="43.96037" lon="5.05652">
        <ele>102.5177002</ele>
        <time>2016-01-23T09:20:35Z</time>
      </trkpt>
      <trkpt lat="43.96038" lon="5.05629">
        <ele>101.5563965</ele>
        <time>2016-01-23T09:20:39Z</time>
      </trkpt>
      <trkpt lat="43.96049" lon="5.05584">
        <ele>102.0371094</ele>
        <time>2016-01-23T09:20:48Z</time>
      </trkpt>
      <trkpt lat="43.96058" lon="5.05572">
        <ele>102.5177002</ele>
        <time>2016-01-23T09:20:52Z</time>
      </trkpt>
      <trkpt lat="43.96054" lon="5.05558">
        <ele>103.4790039</ele>
        <time>2016-01-23T09:20:57Z</time>
      </trkpt>
      <trkpt lat="43.96044" lon="5.05559">
        <ele>102.5177002</ele>
        <time>2016-01-23T09:21:01Z</time>
      </trkpt>
      <trkpt lat="43.9602" lon="5.05547">
        <ele>101.0756836</ele>
        <time>2016-01-23T09:21:09Z</time>
      </trkpt>
      <trkpt lat="43.96018" lon="5.05531">
        <ele>100.5950928</ele>
        <time>2016-01-23T09:21:12Z</time>
      </trkpt>
      <trkpt lat="43.9602" lon="5.0546">
        <ele>99.6337891</ele>
        <time>2016-01-23T09:21:26Z</time>
      </trkpt>
      <trkpt lat="43.96012" lon="5.05395">
        <ele>99.6337891</ele>
        <time>2016-01-23T09:21:39Z</time>
      </trkpt>
      <trkpt lat="43.9599" lon="5.05335">
        <ele>99.6337891</ele>
        <time>2016-01-23T09:21:53Z</time>
      </trkpt>
      <trkpt lat="43.95967" lon="5.05278">
        <ele>101.0756836</ele>
        <time>2016-01-23T09:22:06Z</time>
      </trkpt>
      <trkpt lat="43.95937" lon="5.05248">
        <ele>101.5563965</ele>
        <time>2016-01-23T09:22:17Z</time>
      </trkpt>
      <trkpt lat="43.95902" lon="5.05239">
        <ele>98.6724854</ele>
        <time>2016-01-23T09:22:27Z</time>
      </trkpt>
      <trkpt lat="43.9587" lon="5.0525">
        <ele>97.7111816</ele>
        <time>2016-01-23T09:22:36Z</time>
      </trkpt>
      <trkpt lat="43.95835" lon="5.05275">
        <ele>98.6724854</ele>
        <time>2016-01-23T09:22:46Z</time>
      </trkpt>
      <trkpt lat="43.95792" lon="5.05309">
        <ele>97.7111816</ele>
        <time>2016-01-23T09:22:59Z</time>
      </trkpt>
      <trkpt lat="43.95767" lon="5.05333">
        <ele>97.2304688</ele>
        <time>2016-01-23T09:23:08Z</time>
      </trkpt>
      <trkpt lat="43.95755" lon="5.05346">
        <ele>97.7111816</ele>
        <time>2016-01-23T09:23:14Z</time>
      </trkpt>
      <trkpt lat="43.95749" lon="5.05375">
        <ele>98.1918945</ele>
        <time>2016-01-23T09:23:23Z</time>
      </trkpt>
      <trkpt lat="43.95721" lon="5.05403">
        <ele>98.1918945</ele>
        <time>2016-01-23T09:23:33Z</time>
      </trkpt>
      <trkpt lat="43.95681" lon="5.05406">
        <ele>96.2692871</ele>
        <time>2016-01-23T09:23:45Z</time>
      </trkpt>
      <trkpt lat="43.95636" lon="5.05413">
        <ele>92.4239502</ele>
        <time>2016-01-23T09:23:59Z</time>
      </trkpt>
      <trkpt lat="43.95619" lon="5.05442">
        <ele>95.7884521</ele>
        <time>2016-01-23T09:24:06Z</time>
      </trkpt>
      <trkpt lat="43.95584" lon="5.05518">
        <ele>99.6337891</ele>
        <time>2016-01-23T09:24:24Z</time>
      </trkpt>
      <trkpt lat="43.95546" lon="5.05562">
        <ele>99.1530762</ele>
        <time>2016-01-23T09:24:37Z</time>
      </trkpt>
      <trkpt lat="43.95479" lon="5.05603">
        <ele>98.6724854</ele>
        <time>2016-01-23T09:24:55Z</time>
      </trkpt>
      <trkpt lat="43.95427" lon="5.05638">
        <ele>99.6337891</ele>
        <time>2016-01-23T09:25:10Z</time>
      </trkpt>
      <trkpt lat="43.954" lon="5.05679">
        <ele>100.114502</ele>
        <time>2016-01-23T09:25:21Z</time>
      </trkpt>
      <trkpt lat="43.95385" lon="5.05729">
        <ele>99.6337891</ele>
        <time>2016-01-23T09:25:32Z</time>
      </trkpt>
      <trkpt lat="43.95387" lon="5.05793">
        <ele>102.0371094</ele>
        <time>2016-01-23T09:25:46Z</time>
      </trkpt>
      <trkpt lat="43.95389" lon="5.05857">
        <ele>102.5177002</ele>
        <time>2016-01-23T09:26:00Z</time>
      </trkpt>
      <trkpt lat="43.95377" lon="5.05881">
        <ele>102.5177002</ele>
        <time>2016-01-23T09:26:08Z</time>
      </trkpt>
      <trkpt lat="43.95382" lon="5.05903">
        <ele>102.5177002</ele>
        <time>2016-01-23T09:26:16Z</time>
      </trkpt>
      <trkpt lat="43.95388" lon="5.05916">
        <ele>101.5563965</ele>
        <time>2016-01-23T09:26:28Z</time>
      </trkpt>
      <trkpt lat="43.95389" lon="5.05918">
        <ele>101.0756836</ele>
        <time>2016-01-23T09:26:30Z</time>
      </trkpt>
      <trkpt lat="43.9539" lon="5.0592">
        <ele>101.5563965</ele>
        <time>2016-01-23T09:26:32Z</time>
      </trkpt>
      <trkpt lat="43.95391" lon="5.05922">
        <ele>101.5563965</ele>
        <time>2016-01-23T09:26:34Z</time>
      </trkpt>
      <trkpt lat="43.95392" lon="5.05925">
        <ele>101.5563965</ele>
        <time>2016-01-23T09:26:36Z</time>
      </trkpt>
      <trkpt lat="43.95408" lon="5.05943">
        <ele>102.0371094</ele>
        <time>2016-01-23T09:26:51Z</time>
      </trkpt>
      <trkpt lat="43.95434" lon="5.05951">
        <ele>102.0371094</ele>
        <time>2016-01-23T09:27:05Z</time>
      </trkpt>
      <trkpt lat="43.9546" lon="5.05949">
        <ele>103.9597168</ele>
        <time>2016-01-23T09:27:17Z</time>
      </trkpt>
      <trkpt lat="43.95491" lon="5.05943">
        <ele>107.3243408</ele>
        <time>2016-01-23T09:27:32Z</time>
      </trkpt>
      <trkpt lat="43.95501" lon="5.05943">
        <ele>108.2856445</ele>
        <time>2016-01-23T09:27:39Z</time>
      </trkpt>
      <trkpt lat="43.95509" lon="5.05941">
        <ele>109.2469482</ele>
        <time>2016-01-23T09:27:43Z</time>
      </trkpt>
      <trkpt lat="43.95536" lon="5.05942">
        <ele>110.6888428</ele>
        <time>2016-01-23T09:27:57Z</time>
      </trkpt>
      <trkpt lat="43.95543" lon="5.05945">
        <ele>111.1695557</ele>
        <time>2016-01-23T09:28:01Z</time>
      </trkpt>
      <trkpt lat="43.95558" lon="5.0595">
        <ele>112.1309814</ele>
        <time>2016-01-23T09:28:09Z</time>
      </trkpt>
      <trkpt lat="43.9558" lon="5.05953">
        <ele>113.0922852</ele>
        <time>2016-01-23T09:28:21Z</time>
      </trkpt>
      <trkpt lat="43.95601" lon="5.05956">
        <ele>115.4956055</ele>
        <time>2016-01-23T09:28:33Z</time>
      </trkpt>
      <trkpt lat="43.95625" lon="5.05966">
        <ele>117.4182129</ele>
        <time>2016-01-23T09:28:49Z</time>
      </trkpt>
      <trkpt lat="43.95637" lon="5.05971">
        <ele>117.8988037</ele>
        <time>2016-01-23T09:28:57Z</time>
      </trkpt>
      <trkpt lat="43.95661" lon="5.05977">
        <ele>122.2247314</ele>
        <time>2016-01-23T09:29:12Z</time>
      </trkpt>
      <trkpt lat="43.95671" lon="5.05982">
        <ele>122.7054443</ele>
        <time>2016-01-23T09:29:18Z</time>
      </trkpt>
      <trkpt lat="43.95692" lon="5.06004">
        <ele>126.0699463</ele>
        <time>2016-01-23T09:29:35Z</time>
      </trkpt>
      <trkpt lat="43.957" lon="5.06011">
        <ele>127.5119629</ele>
        <time>2016-01-23T09:29:41Z</time>
      </trkpt>
      <trkpt lat="43.95718" lon="5.06051">
        <ele>132.3186035</ele>
        <time>2016-01-23T09:30:02Z</time>
      </trkpt>
      <trkpt lat="43.95735" lon="5.06071">
        <ele>131.8378906</ele>
        <time>2016-01-23T09:30:15Z</time>
      </trkpt>
      <trkpt lat="43.95761" lon="5.06089">
        <ele>134.2412109</ele>
        <time>2016-01-23T09:30:30Z</time>
      </trkpt>
      <trkpt lat="43.95777" lon="5.06119">
        <ele>137.605835</ele>
        <time>2016-01-23T09:30:46Z</time>
      </trkpt>
      <trkpt lat="43.9579" lon="5.06162">
        <ele>140.970459</ele>
        <time>2016-01-23T09:31:05Z</time>
      </trkpt>
      <trkpt lat="43.95812" lon="5.062">
        <ele>141.9317627</ele>
        <time>2016-01-23T09:31:24Z</time>
      </trkpt>
      <trkpt lat="43.95838" lon="5.06231">
        <ele>140.970459</ele>
        <time>2016-01-23T09:31:39Z</time>
      </trkpt>
      <trkpt lat="43.95873" lon="5.06269">
        <ele>141.9317627</ele>
        <time>2016-01-23T09:31:56Z</time>
      </trkpt>
      <trkpt lat="43.95899" lon="5.06299">
        <ele>144.8157959</ele>
        <time>2016-01-23T09:32:09Z</time>
      </trkpt>
      <trkpt lat="43.95924" lon="5.06333">
        <ele>150.1030273</ele>
        <time>2016-01-23T09:32:25Z</time>
      </trkpt>
      <trkpt lat="43.95936" lon="5.06365">
        <ele>153.4676514</ele>
        <time>2016-01-23T09:32:37Z</time>
      </trkpt>
      <trkpt lat="43.9593" lon="5.06404">
        <ele>155.3902588</ele>
        <time>2016-01-23T09:32:50Z</time>
      </trkpt>
      <trkpt lat="43.9591" lon="5.06447">
        <ele>154.4289551</ele>
        <time>2016-01-23T09:33:05Z</time>
      </trkpt>
      <trkpt lat="43.95899" lon="5.06465">
        <ele>152.0257568</ele>
        <time>2016-01-23T09:33:13Z</time>
      </trkpt>
      <trkpt lat="43.95899" lon="5.06466">
        <ele>152.0257568</ele>
        <time>2016-01-23T09:33:14Z</time>
      </trkpt>
      <trkpt lat="43.95905" lon="5.06495">
        <ele>147.699707</ele>
        <time>2016-01-23T09:33:20Z</time>
      </trkpt>
      <trkpt lat="43.95916" lon="5.06523">
        <ele>147.2189941</ele>
        <time>2016-01-23T09:33:24Z</time>
      </trkpt>
      <trkpt lat="43.9593" lon="5.06544">
        <ele>151.064209</ele>
        <time>2016-01-23T09:33:31Z</time>
      </trkpt>
      <trkpt lat="43.95934" lon="5.06557">
        <ele>153.4676514</ele>
        <time>2016-01-23T09:33:36Z</time>
      </trkpt>
      <trkpt lat="43.95952" lon="5.06596">
        <ele>155.8709717</ele>
        <time>2016-01-23T09:33:50Z</time>
      </trkpt>
      <trkpt lat="43.95959" lon="5.06618">
        <ele>154.9095459</ele>
        <time>2016-01-23T09:33:56Z</time>
      </trkpt>
      <trkpt lat="43.95951" lon="5.06659">
        <ele>150.5836182</ele>
        <time>2016-01-23T09:34:03Z</time>
      </trkpt>
      <trkpt lat="43.95966" lon="5.06703">
        <ele>151.064209</ele>
        <time>2016-01-23T09:34:12Z</time>
      </trkpt>
      <trkpt lat="43.95983" lon="5.06747">
        <ele>152.0257568</ele>
        <time>2016-01-23T09:34:23Z</time>
      </trkpt>
      <trkpt lat="43.95985" lon="5.06761">
        <ele>152.9869385</ele>
        <time>2016-01-23T09:34:26Z</time>
      </trkpt>
      <trkpt lat="43.96005" lon="5.0679">
        <ele>152.5063477</ele>
        <time>2016-01-23T09:34:37Z</time>
      </trkpt>
      <trkpt lat="43.96022" lon="5.06833">
        <ele>154.9095459</ele>
        <time>2016-01-23T09:34:49Z</time>
      </trkpt>
      <trkpt lat="43.96024" lon="5.06843">
        <ele>154.4289551</ele>
        <time>2016-01-23T09:34:51Z</time>
      </trkpt>
      <trkpt lat="43.96047" lon="5.06905">
        <ele>154.9095459</ele>
        <time>2016-01-23T09:35:04Z</time>
      </trkpt>
      <trkpt lat="43.96056" lon="5.06939">
        <ele>156.3515625</ele>
        <time>2016-01-23T09:35:14Z</time>
      </trkpt>
      <trkpt lat="43.96048" lon="5.06963">
        <ele>158.7547607</ele>
        <time>2016-01-23T09:35:23Z</time>
      </trkpt>
      <trkpt lat="43.96041" lon="5.06996">
        <ele>158.2741699</ele>
        <time>2016-01-23T09:35:35Z</time>
      </trkpt>
      <trkpt lat="43.96032" lon="5.07051">
        <ele>159.7161865</ele>
        <time>2016-01-23T09:35:53Z</time>
      </trkpt>
      <trkpt lat="43.96024" lon="5.07107">
        <ele>159.7161865</ele>
        <time>2016-01-23T09:36:10Z</time>
      </trkpt>
      <trkpt lat="43.96025" lon="5.07111">
        <ele>159.7161865</ele>
        <time>2016-01-23T09:36:11Z</time>
      </trkpt>
      <trkpt lat="43.96032" lon="5.07131">
        <ele>158.7547607</ele>
        <time>2016-01-23T09:36:17Z</time>
      </trkpt>
      <trkpt lat="43.96028" lon="5.07167">
        <ele>161.1582031</ele>
        <time>2016-01-23T09:36:29Z</time>
      </trkpt>
      <trkpt lat="43.96026" lon="5.07205">
        <ele>162.1195068</ele>
        <time>2016-01-23T09:36:42Z</time>
      </trkpt>
      <trkpt lat="43.96026" lon="5.07208">
        <ele>162.1195068</ele>
        <time>2016-01-23T09:36:43Z</time>
      </trkpt>
      <trkpt lat="43.96017" lon="5.07234">
        <ele>167.8873291</ele>
        <time>2016-01-23T09:36:54Z</time>
      </trkpt>
      <trkpt lat="43.96001" lon="5.07265">
        <ele>168.8487549</ele>
        <time>2016-01-23T09:37:09Z</time>
      </trkpt>
      <trkpt lat="43.9598" lon="5.07279">
        <ele>168.8487549</ele>
        <time>2016-01-23T09:37:21Z</time>
      </trkpt>
      <trkpt lat="43.95958" lon="5.07305">
        <ele>169.8100586</ele>
        <time>2016-01-23T09:37:31Z</time>
      </trkpt>
      <trkpt lat="43.95954" lon="5.07314">
        <ele>171.732666</ele>
        <time>2016-01-23T09:37:34Z</time>
      </trkpt>
      <trkpt lat="43.9596" lon="5.07324">
        <ele>171.2520752</ele>
        <time>2016-01-23T09:37:38Z</time>
      </trkpt>
      <trkpt lat="43.95992" lon="5.07352">
        <ele>169.3294678</ele>
        <time>2016-01-23T09:37:52Z</time>
      </trkpt>
      <trkpt lat="43.96009" lon="5.07371">
        <ele>169.3294678</ele>
        <time>2016-01-23T09:38:03Z</time>
      </trkpt>
      <trkpt lat="43.96027" lon="5.0739">
        <ele>171.732666</ele>
        <time>2016-01-23T09:38:14Z</time>
      </trkpt>
      <trkpt lat="43.96034" lon="5.07398">
        <ele>172.2132568</ele>
        <time>2016-01-23T09:38:19Z</time>
      </trkpt>
      <trkpt lat="43.96037" lon="5.07401">
        <ele>171.732666</ele>
        <time>2016-01-23T09:38:21Z</time>
      </trkpt>
      <trkpt lat="43.96049" lon="5.07422">
        <ele>171.2520752</ele>
        <time>2016-01-23T09:38:31Z</time>
      </trkpt>
      <trkpt lat="43.96058" lon="5.07454">
        <ele>175.5778809</ele>
        <time>2016-01-23T09:38:44Z</time>
      </trkpt>
      <trkpt lat="43.9606" lon="5.07482">
        <ele>180.3845215</ele>
        <time>2016-01-23T09:38:56Z</time>
      </trkpt>
      <trkpt lat="43.96059" lon="5.0749">
        <ele>182.7878418</ele>
        <time>2016-01-23T09:39:00Z</time>
      </trkpt>
      <trkpt lat="43.96054" lon="5.07507">
        <ele>184.2298584</ele>
        <time>2016-01-23T09:39:09Z</time>
      </trkpt>
      <trkpt lat="43.96054" lon="5.07508">
        <ele>184.7105713</ele>
        <time>2016-01-23T09:39:10Z</time>
      </trkpt>
      <trkpt lat="43.96049" lon="5.07529">
        <ele>188.5557861</ele>
        <time>2016-01-23T09:39:22Z</time>
      </trkpt>
      <trkpt lat="43.96046" lon="5.07534">
        <ele>189.5169678</ele>
        <time>2016-01-23T09:39:25Z</time>
      </trkpt>
      <trkpt lat="43.96038" lon="5.07551">
        <ele>191.4395752</ele>
        <time>2016-01-23T09:39:36Z</time>
      </trkpt>
      <trkpt lat="43.96032" lon="5.07564">
        <ele>194.8043213</ele>
        <time>2016-01-23T09:39:45Z</time>
      </trkpt>
      <trkpt lat="43.96023" lon="5.07574">
        <ele>194.8043213</ele>
        <time>2016-01-23T09:39:51Z</time>
      </trkpt>
      <trkpt lat="43.96012" lon="5.07592">
        <ele>196.2463379</ele>
        <time>2016-01-23T09:39:59Z</time>
      </trkpt>
      <trkpt lat="43.96005" lon="5.07602">
        <ele>199.130127</ele>
        <time>2016-01-23T09:40:08Z</time>
      </trkpt>
      <trkpt lat="43.96004" lon="5.07602">
        <ele>199.130127</ele>
        <time>2016-01-23T09:40:09Z</time>
      </trkpt>
      <trkpt lat="43.95996" lon="5.07613">
        <ele>202.9754639</ele>
        <time>2016-01-23T09:40:17Z</time>
      </trkpt>
      <trkpt lat="43.95992" lon="5.0762">
        <ele>204.4174805</ele>
        <time>2016-01-23T09:40:23Z</time>
      </trkpt>
      <trkpt lat="43.95981" lon="5.07637">
        <ele>208.7434082</ele>
        <time>2016-01-23T09:40:34Z</time>
      </trkpt>
      <trkpt lat="43.95968" lon="5.07656">
        <ele>211.6274414</ele>
        <time>2016-01-23T09:40:46Z</time>
      </trkpt>
      <trkpt lat="43.95966" lon="5.07659">
        <ele>212.1080322</ele>
        <time>2016-01-23T09:40:48Z</time>
      </trkpt>
      <trkpt lat="43.95964" lon="5.07664">
        <ele>213.0693359</ele>
        <time>2016-01-23T09:40:51Z</time>
      </trkpt>
      <trkpt lat="43.9596" lon="5.07679">
        <ele>211.6274414</ele>
        <time>2016-01-23T09:40:58Z</time>
      </trkpt>
      <trkpt lat="43.95949" lon="5.07701">
        <ele>210.1854248</ele>
        <time>2016-01-23T09:41:09Z</time>
      </trkpt>
      <trkpt lat="43.95942" lon="5.07725">
        <ele>209.2241211</ele>
        <time>2016-01-23T09:41:19Z</time>
      </trkpt>
      <trkpt lat="43.95932" lon="5.07748">
        <ele>206.8206787</ele>
        <time>2016-01-23T09:41:31Z</time>
      </trkpt>
      <trkpt lat="43.9593" lon="5.07756">
        <ele>207.3013916</ele>
        <time>2016-01-23T09:41:35Z</time>
      </trkpt>
      <trkpt lat="43.9593" lon="5.07781">
        <ele>207.3013916</ele>
        <time>2016-01-23T09:41:48Z</time>
      </trkpt>
      <trkpt lat="43.95932" lon="5.07793">
        <ele>205.8594971</ele>
        <time>2016-01-23T09:41:54Z</time>
      </trkpt>
      <trkpt lat="43.95947" lon="5.07801">
        <ele>203.9368896</ele>
        <time>2016-01-23T09:42:06Z</time>
      </trkpt>
      <trkpt lat="43.95948" lon="5.078">
        <ele>203.9368896</ele>
        <time>2016-01-23T09:42:07Z</time>
      </trkpt>
      <trkpt lat="43.95955" lon="5.07803">
        <ele>204.4174805</ele>
        <time>2016-01-23T09:42:13Z</time>
      </trkpt>
      <trkpt lat="43.95974" lon="5.07811">
        <ele>203.4561768</ele>
        <time>2016-01-23T09:42:27Z</time>
      </trkpt>
      <trkpt lat="43.95995" lon="5.07818">
        <ele>206.8206787</ele>
        <time>2016-01-23T09:42:39Z</time>
      </trkpt>
      <trkpt lat="43.95999" lon="5.07821">
        <ele>207.3013916</ele>
        <time>2016-01-23T09:42:42Z</time>
      </trkpt>
      <trkpt lat="43.96026" lon="5.07827">
        <ele>207.3013916</ele>
        <time>2016-01-23T09:42:56Z</time>
      </trkpt>
      <trkpt lat="43.96057" lon="5.0783">
        <ele>206.8206787</ele>
        <time>2016-01-23T09:43:09Z</time>
      </trkpt>
      <trkpt lat="43.96071" lon="5.07832">
        <ele>206.3400879</ele>
        <time>2016-01-23T09:43:15Z</time>
      </trkpt>
      <trkpt lat="43.96097" lon="5.07836">
        <ele>206.3400879</ele>
        <time>2016-01-23T09:43:25Z</time>
      </trkpt>
      <trkpt lat="43.96129" lon="5.07845">
        <ele>207.7821045</ele>
        <time>2016-01-23T09:43:39Z</time>
      </trkpt>
      <trkpt lat="43.96154" lon="5.07856">
        <ele>206.3400879</ele>
        <time>2016-01-23T09:43:50Z</time>
      </trkpt>
      <trkpt lat="43.96189" lon="5.07863">
        <ele>204.8980713</ele>
        <time>2016-01-23T09:44:01Z</time>
      </trkpt>
      <trkpt lat="43.96193" lon="5.07863">
        <ele>204.4174805</ele>
        <time>2016-01-23T09:44:02Z</time>
      </trkpt>
      <trkpt lat="43.96206" lon="5.07865">
        <ele>203.9368896</ele>
        <time>2016-01-23T09:44:05Z</time>
      </trkpt>
      <trkpt lat="43.9622" lon="5.07867">
        <ele>202.9754639</ele>
        <time>2016-01-23T09:44:08Z</time>
      </trkpt>
      <trkpt lat="43.96229" lon="5.07867">
        <ele>202.0142822</ele>
        <time>2016-01-23T09:44:10Z</time>
      </trkpt>
      <trkpt lat="43.96256" lon="5.07886">
        <ele>204.4174805</ele>
        <time>2016-01-23T09:44:21Z</time>
      </trkpt>
      <trkpt lat="43.96269" lon="5.07904">
        <ele>205.3787842</ele>
        <time>2016-01-23T09:44:29Z</time>
      </trkpt>
      <trkpt lat="43.96273" lon="5.0794">
        <ele>206.8206787</ele>
        <time>2016-01-23T09:44:39Z</time>
      </trkpt>
      <trkpt lat="43.96283" lon="5.07962">
        <ele>211.6274414</ele>
        <time>2016-01-23T09:44:49Z</time>
      </trkpt>
      <trkpt lat="43.96287" lon="5.07974">
        <ele>213.0693359</ele>
        <time>2016-01-23T09:44:54Z</time>
      </trkpt>
      <trkpt lat="43.96286" lon="5.07991">
        <ele>213.5500488</ele>
        <time>2016-01-23T09:45:00Z</time>
      </trkpt>
      <trkpt lat="43.96287" lon="5.08018">
        <ele>216.9146729</ele>
        <time>2016-01-23T09:45:12Z</time>
      </trkpt>
      <trkpt lat="43.96284" lon="5.08048">
        <ele>218.3565674</ele>
        <time>2016-01-23T09:45:27Z</time>
      </trkpt>
      <trkpt lat="43.96284" lon="5.0805">
        <ele>218.3565674</ele>
        <time>2016-01-23T09:45:28Z</time>
      </trkpt>
      <trkpt lat="43.96291" lon="5.08055">
        <ele>219.3179932</ele>
        <time>2016-01-23T09:45:33Z</time>
      </trkpt>
      <trkpt lat="43.96316" lon="5.08064">
        <ele>223.163208</ele>
        <time>2016-01-23T09:45:49Z</time>
      </trkpt>
      <trkpt lat="43.96328" lon="5.0807">
        <ele>223.163208</ele>
        <time>2016-01-23T09:45:56Z</time>
      </trkpt>
      <trkpt lat="43.96333" lon="5.0809">
        <ele>223.6437988</ele>
        <time>2016-01-23T09:46:03Z</time>
      </trkpt>
      <trkpt lat="43.96342" lon="5.08088">
        <ele>222.6824951</ele>
        <time>2016-01-23T09:46:06Z</time>
      </trkpt>
      <trkpt lat="43.96361" lon="5.08066">
        <ele>223.163208</ele>
        <time>2016-01-23T09:46:18Z</time>
      </trkpt>
      <trkpt lat="43.96369" lon="5.08049">
        <ele>223.163208</ele>
        <time>2016-01-23T09:46:25Z</time>
      </trkpt>
      <trkpt lat="43.96378" lon="5.08046">
        <ele>222.6824951</ele>
        <time>2016-01-23T09:46:29Z</time>
      </trkpt>
      <trkpt lat="43.9639" lon="5.0805">
        <ele>222.6824951</ele>
        <time>2016-01-23T09:46:35Z</time>
      </trkpt>
      <trkpt lat="43.96396" lon="5.08054">
        <ele>221.2406006</ele>
        <time>2016-01-23T09:46:39Z</time>
      </trkpt>
      <trkpt lat="43.96429" lon="5.08063">
        <ele>223.6437988</ele>
        <time>2016-01-23T09:46:53Z</time>
      </trkpt>
      <trkpt lat="43.96449" lon="5.08065">
        <ele>223.6437988</ele>
        <time>2016-01-23T09:47:00Z</time>
      </trkpt>
      <trkpt lat="43.96454" lon="5.08066">
        <ele>224.1245117</ele>
        <time>2016-01-23T09:47:02Z</time>
      </trkpt>
      <trkpt lat="43.9647" lon="5.08081">
        <ele>226.0471191</ele>
        <time>2016-01-23T09:47:10Z</time>
      </trkpt>
      <trkpt lat="43.96478" lon="5.08084">
        <ele>225.0859375</ele>
        <time>2016-01-23T09:47:12Z</time>
      </trkpt>
      <trkpt lat="43.96494" lon="5.08085">
        <ele>222.2017822</ele>
        <time>2016-01-23T09:47:16Z</time>
      </trkpt>
      <trkpt lat="43.96511" lon="5.08118">
        <ele>218.8372803</ele>
        <time>2016-01-23T09:47:21Z</time>
      </trkpt>
      <trkpt lat="43.96535" lon="5.08153">
        <ele>222.2017822</ele>
        <time>2016-01-23T09:47:28Z</time>
      </trkpt>
      <trkpt lat="43.96545" lon="5.08173">
        <ele>224.1245117</ele>
        <time>2016-01-23T09:47:37Z</time>
      </trkpt>
      <trkpt lat="43.96546" lon="5.08175">
        <ele>224.1245117</ele>
        <time>2016-01-23T09:47:38Z</time>
      </trkpt>
      <trkpt lat="43.96549" lon="5.08186">
        <ele>223.163208</ele>
        <time>2016-01-23T09:47:42Z</time>
      </trkpt>
      <trkpt lat="43.96558" lon="5.08194">
        <ele>227.9697266</ele>
        <time>2016-01-23T09:47:50Z</time>
      </trkpt>
      <trkpt lat="43.96563" lon="5.08196">
        <ele>229.4117432</ele>
        <time>2016-01-23T09:48:04Z</time>
      </trkpt>
      <trkpt lat="43.96571" lon="5.082">
        <ele>229.892334</ele>
        <time>2016-01-23T09:48:13Z</time>
      </trkpt>
      <trkpt lat="43.96588" lon="5.08196">
        <ele>230.3730469</ele>
        <time>2016-01-23T09:48:25Z</time>
      </trkpt>
      <trkpt lat="43.96603" lon="5.08197">
        <ele>229.4117432</ele>
        <time>2016-01-23T09:48:37Z</time>
      </trkpt>
      <trkpt lat="43.96605" lon="5.08199">
        <ele>229.892334</ele>
        <time>2016-01-23T09:48:39Z</time>
      </trkpt>
      <trkpt lat="43.96609" lon="5.082">
        <ele>230.3730469</ele>
        <time>2016-01-23T09:48:42Z</time>
      </trkpt>
      <trkpt lat="43.96614" lon="5.08206">
        <ele>229.892334</ele>
        <time>2016-01-23T09:48:47Z</time>
      </trkpt>
      <trkpt lat="43.9662" lon="5.08211">
        <ele>230.3730469</ele>
        <time>2016-01-23T09:48:52Z</time>
      </trkpt>
      <trkpt lat="43.96622" lon="5.08214">
        <ele>230.8537598</ele>
        <time>2016-01-23T09:48:54Z</time>
      </trkpt>
      <trkpt lat="43.96639" lon="5.0824">
        <ele>232.7764893</ele>
        <time>2016-01-23T09:49:11Z</time>
      </trkpt>
      <trkpt lat="43.96655" lon="5.08244">
        <ele>233.2570801</ele>
        <time>2016-01-23T09:49:23Z</time>
      </trkpt>
      <trkpt lat="43.96682" lon="5.08258">
        <ele>234.6990967</ele>
        <time>2016-01-23T09:49:41Z</time>
      </trkpt>
      <trkpt lat="43.96705" lon="5.08275">
        <ele>233.2570801</ele>
        <time>2016-01-23T09:49:52Z</time>
      </trkpt>
      <trkpt lat="43.96735" lon="5.08283">
        <ele>234.2183838</ele>
        <time>2016-01-23T09:50:04Z</time>
      </trkpt>
      <trkpt lat="43.96749" lon="5.08289">
        <ele>233.7376709</ele>
        <time>2016-01-23T09:50:10Z</time>
      </trkpt>
      <trkpt lat="43.9677" lon="5.08294">
        <ele>234.2183838</ele>
        <time>2016-01-23T09:50:20Z</time>
      </trkpt>
      <trkpt lat="43.96795" lon="5.08267">
        <ele>236.1409912</ele>
        <time>2016-01-23T09:50:34Z</time>
      </trkpt>
      <trkpt lat="43.96811" lon="5.08244">
        <ele>238.5443115</ele>
        <time>2016-01-23T09:50:45Z</time>
      </trkpt>
      <trkpt lat="43.96831" lon="5.08227">
        <ele>239.9862061</ele>
        <time>2016-01-23T09:50:56Z</time>
      </trkpt>
      <trkpt lat="43.96856" lon="5.08222">
        <ele>241.4282227</ele>
        <time>2016-01-23T09:51:09Z</time>
      </trkpt>
      <trkpt lat="43.96875" lon="5.08225">
        <ele>242.8702393</ele>
        <time>2016-01-23T09:51:20Z</time>
      </trkpt>
      <trkpt lat="43.96895" lon="5.0825">
        <ele>246.7154541</ele>
        <time>2016-01-23T09:51:35Z</time>
      </trkpt>
      <trkpt lat="43.96899" lon="5.08255">
        <ele>247.6767578</ele>
        <time>2016-01-23T09:51:39Z</time>
      </trkpt>
      <trkpt lat="43.96925" lon="5.08267">
        <ele>252.0028076</ele>
        <time>2016-01-23T09:51:55Z</time>
      </trkpt>
      <trkpt lat="43.96939" lon="5.08269">
        <ele>254.4060059</ele>
        <time>2016-01-23T09:52:02Z</time>
      </trkpt>
      <trkpt lat="43.96953" lon="5.08286">
        <ele>255.3673096</ele>
        <time>2016-01-23T09:52:13Z</time>
      </trkpt>
      <trkpt lat="43.96977" lon="5.08283">
        <ele>254.4060059</ele>
        <time>2016-01-23T09:52:27Z</time>
      </trkpt>
      <trkpt lat="43.9699" lon="5.08256">
        <ele>253.925415</ele>
        <time>2016-01-23T09:52:41Z</time>
      </trkpt>
      <trkpt lat="43.97001" lon="5.08231">
        <ele>254.4060059</ele>
        <time>2016-01-23T09:52:54Z</time>
      </trkpt>
      <trkpt lat="43.97014" lon="5.08216">
        <ele>252.4833984</ele>
        <time>2016-01-23T09:53:05Z</time>
      </trkpt>
      <trkpt lat="43.97021" lon="5.08229">
        <ele>251.0413818</ele>
        <time>2016-01-23T09:53:09Z</time>
      </trkpt>
      <trkpt lat="43.97044" lon="5.08275">
        <ele>251.5220947</ele>
        <time>2016-01-23T09:53:19Z</time>
      </trkpt>
      <trkpt lat="43.97062" lon="5.08305">
        <ele>254.4060059</ele>
        <time>2016-01-23T09:53:29Z</time>
      </trkpt>
      <trkpt lat="43.97075" lon="5.08317">
        <ele>255.8480225</ele>
        <time>2016-01-23T09:53:37Z</time>
      </trkpt>
      <trkpt lat="43.97092" lon="5.08333">
        <ele>254.4060059</ele>
        <time>2016-01-23T09:53:43Z</time>
      </trkpt>
      <trkpt lat="43.97107" lon="5.08355">
        <ele>255.8480225</ele>
        <time>2016-01-23T09:53:49Z</time>
      </trkpt>
      <trkpt lat="43.9711" lon="5.08359">
        <ele>255.8480225</ele>
        <time>2016-01-23T09:53:50Z</time>
      </trkpt>
      <trkpt lat="43.9712" lon="5.08397">
        <ele>257.2900391</ele>
        <time>2016-01-23T09:54:00Z</time>
      </trkpt>
      <trkpt lat="43.97125" lon="5.08418">
        <ele>260.1739502</ele>
        <time>2016-01-23T09:54:10Z</time>
      </trkpt>
      <trkpt lat="43.97126" lon="5.0842">
        <ele>260.1739502</ele>
        <time>2016-01-23T09:54:42Z</time>
      </trkpt>
      <trkpt lat="43.97127" lon="5.08421">
        <ele>261.1352539</ele>
        <time>2016-01-23T09:56:49Z</time>
      </trkpt>
      <trkpt lat="43.97143" lon="5.08439">
        <ele>263.5385742</ele>
        <time>2016-01-23T09:56:58Z</time>
      </trkpt>
      <trkpt lat="43.9716" lon="5.08466">
        <ele>262.5771484</ele>
        <time>2016-01-23T09:57:09Z</time>
      </trkpt>
      <trkpt lat="43.97175" lon="5.08489">
        <ele>266.4224854</ele>
        <time>2016-01-23T09:57:19Z</time>
      </trkpt>
      <trkpt lat="43.97181" lon="5.08496">
        <ele>268.3450928</ele>
        <time>2016-01-23T09:57:22Z</time>
      </trkpt>
      <trkpt lat="43.97192" lon="5.08507">
        <ele>271.7097168</ele>
        <time>2016-01-23T09:57:28Z</time>
      </trkpt>
      <trkpt lat="43.97206" lon="5.0854">
        <ele>272.6711426</ele>
        <time>2016-01-23T09:57:40Z</time>
      </trkpt>
      <trkpt lat="43.97219" lon="5.08559">
        <ele>274.1130371</ele>
        <time>2016-01-23T09:57:50Z</time>
      </trkpt>
      <trkpt lat="43.97227" lon="5.0857">
        <ele>275.0744629</ele>
        <time>2016-01-23T09:57:56Z</time>
      </trkpt>
      <trkpt lat="43.97241" lon="5.0859">
        <ele>276.0356445</ele>
        <time>2016-01-23T09:58:06Z</time>
      </trkpt>
      <trkpt lat="43.97264" lon="5.08619">
        <ele>274.1130371</ele>
        <time>2016-01-23T09:58:17Z</time>
      </trkpt>
      <trkpt lat="43.97275" lon="5.08628">
        <ele>274.1130371</ele>
        <time>2016-01-23T09:58:22Z</time>
      </trkpt>
      <trkpt lat="43.97288" lon="5.08646">
        <ele>273.1518555</ele>
        <time>2016-01-23T09:58:32Z</time>
      </trkpt>
      <trkpt lat="43.973" lon="5.08672">
        <ele>273.1518555</ele>
        <time>2016-01-23T09:58:43Z</time>
      </trkpt>
      <trkpt lat="43.97324" lon="5.087">
        <ele>269.3065186</ele>
        <time>2016-01-23T09:58:53Z</time>
      </trkpt>
      <trkpt lat="43.97335" lon="5.0871">
        <ele>267.864502</ele>
        <time>2016-01-23T09:58:56Z</time>
      </trkpt>
      <trkpt lat="43.97354" lon="5.08739">
        <ele>265.4613037</ele>
        <time>2016-01-23T09:59:03Z</time>
      </trkpt>
      <trkpt lat="43.97369" lon="5.0877">
        <ele>264.0192871</ele>
        <time>2016-01-23T09:59:11Z</time>
      </trkpt>
      <trkpt lat="43.9739" lon="5.08794">
        <ele>264.0192871</ele>
        <time>2016-01-23T09:59:20Z</time>
      </trkpt>
      <trkpt lat="43.97392" lon="5.08797">
        <ele>264.0192871</ele>
        <time>2016-01-23T09:59:21Z</time>
      </trkpt>
      <trkpt lat="43.97401" lon="5.08836">
        <ele>264.0192871</ele>
        <time>2016-01-23T09:59:31Z</time>
      </trkpt>
      <trkpt lat="43.97407" lon="5.08877">
        <ele>264.0192871</ele>
        <time>2016-01-23T09:59:40Z</time>
      </trkpt>
      <trkpt lat="43.97411" lon="5.08909">
        <ele>264.9805908</ele>
        <time>2016-01-23T09:59:46Z</time>
      </trkpt>
      <trkpt lat="43.97417" lon="5.08921">
        <ele>265.9418945</ele>
        <time>2016-01-23T09:59:50Z</time>
      </trkpt>
      <trkpt lat="43.97427" lon="5.0896">
        <ele>267.3839111</ele>
        <time>2016-01-23T09:59:59Z</time>
      </trkpt>
      <trkpt lat="43.9743" lon="5.08971">
        <ele>268.3450928</ele>
        <time>2016-01-23T10:00:02Z</time>
      </trkpt>
      <trkpt lat="43.97444" lon="5.09011">
        <ele>270.7484131</ele>
        <time>2016-01-23T10:00:11Z</time>
      </trkpt>
      <trkpt lat="43.9745" lon="5.09031">
        <ele>272.1904297</ele>
        <time>2016-01-23T10:00:16Z</time>
      </trkpt>
      <trkpt lat="43.9746" lon="5.09044">
        <ele>271.7097168</ele>
        <time>2016-01-23T10:00:20Z</time>
      </trkpt>
      <trkpt lat="43.97473" lon="5.0905">
        <ele>270.2677002</ele>
        <time>2016-01-23T10:00:23Z</time>
      </trkpt>
      <trkpt lat="43.97504" lon="5.09062">
        <ele>267.3839111</ele>
        <time>2016-01-23T10:00:30Z</time>
      </trkpt>
      <trkpt lat="43.97525" lon="5.09074">
        <ele>265.4613037</ele>
        <time>2016-01-23T10:00:35Z</time>
      </trkpt>
      <trkpt lat="43.9754" lon="5.09091">
        <ele>263.5385742</ele>
        <time>2016-01-23T10:00:39Z</time>
      </trkpt>
      <trkpt lat="43.97557" lon="5.09116">
        <ele>262.5771484</ele>
        <time>2016-01-23T10:00:44Z</time>
      </trkpt>
      <trkpt lat="43.97571" lon="5.09127">
        <ele>262.0965576</ele>
        <time>2016-01-23T10:00:49Z</time>
      </trkpt>
      <trkpt lat="43.97581" lon="5.09124">
        <ele>260.654541</ele>
        <time>2016-01-23T10:00:57Z</time>
      </trkpt>
      <trkpt lat="43.97582" lon="5.09123">
        <ele>260.654541</ele>
        <time>2016-01-23T10:03:20Z</time>
      </trkpt>
      <trkpt lat="43.97592" lon="5.09089">
        <ele>258.7319336</ele>
        <time>2016-01-23T10:03:27Z</time>
      </trkpt>
      <trkpt lat="43.97601" lon="5.09048">
        <ele>254.8865967</ele>
        <time>2016-01-23T10:03:32Z</time>
      </trkpt>
      <trkpt lat="43.97612" lon="5.09004">
        <ele>250.0802002</ele>
        <time>2016-01-23T10:03:40Z</time>
      </trkpt>
      <trkpt lat="43.97616" lon="5.08984">
        <ele>248.6381836</ele>
        <time>2016-01-23T10:03:49Z</time>
      </trkpt>
      <trkpt lat="43.97618" lon="5.08977">
        <ele>247.6767578</ele>
        <time>2016-01-23T10:03:52Z</time>
      </trkpt>
      <trkpt lat="43.97621" lon="5.08964">
        <ele>246.7154541</ele>
        <time>2016-01-23T10:03:55Z</time>
      </trkpt>
      <trkpt lat="43.97632" lon="5.08948">
        <ele>243.831543</ele>
        <time>2016-01-23T10:03:59Z</time>
      </trkpt>
      <trkpt lat="43.97659" lon="5.0894">
        <ele>240.9476318</ele>
        <time>2016-01-23T10:04:05Z</time>
      </trkpt>
      <trkpt lat="43.97668" lon="5.08936">
        <ele>241.4282227</ele>
        <time>2016-01-23T10:04:07Z</time>
      </trkpt>
      <trkpt lat="43.9767" lon="5.08902">
        <ele>240.467041</ele>
        <time>2016-01-23T10:04:13Z</time>
      </trkpt>
      <trkpt lat="43.97669" lon="5.08895">
        <ele>240.467041</ele>
        <time>2016-01-23T10:04:14Z</time>
      </trkpt>
      <trkpt lat="43.97671" lon="5.08852">
        <ele>242.3896484</ele>
        <time>2016-01-23T10:04:22Z</time>
      </trkpt>
      <trkpt lat="43.97691" lon="5.08819">
        <ele>239.0249023</ele>
        <time>2016-01-23T10:04:29Z</time>
      </trkpt>
      <trkpt lat="43.97718" lon="5.0878">
        <ele>234.2183838</ele>
        <time>2016-01-23T10:04:36Z</time>
      </trkpt>
      <trkpt lat="43.97733" lon="5.08742">
        <ele>231.3343506</ele>
        <time>2016-01-23T10:04:44Z</time>
      </trkpt>
      <trkpt lat="43.97737" lon="5.08731">
        <ele>229.4117432</ele>
        <time>2016-01-23T10:04:51Z</time>
      </trkpt>
      <trkpt lat="43.97756" lon="5.08728">
        <ele>229.892334</ele>
        <time>2016-01-23T10:05:01Z</time>
      </trkpt>
      <trkpt lat="43.9779" lon="5.08734">
        <ele>229.892334</ele>
        <time>2016-01-23T10:05:10Z</time>
      </trkpt>
      <trkpt lat="43.9781" lon="5.0874">
        <ele>229.892334</ele>
        <time>2016-01-23T10:05:14Z</time>
      </trkpt>
      <trkpt lat="43.97824" lon="5.08744">
        <ele>230.3730469</ele>
        <time>2016-01-23T10:05:17Z</time>
      </trkpt>
      <trkpt lat="43.97839" lon="5.08736">
        <ele>229.4117432</ele>
        <time>2016-01-23T10:05:21Z</time>
      </trkpt>
      <trkpt lat="43.97849" lon="5.08721">
        <ele>227.4891357</ele>
        <time>2016-01-23T10:05:25Z</time>
      </trkpt>
      <trkpt lat="43.97856" lon="5.08711">
        <ele>225.5665283</ele>
        <time>2016-01-23T10:05:28Z</time>
      </trkpt>
      <trkpt lat="43.97869" lon="5.08716">
        <ele>225.0859375</ele>
        <time>2016-01-23T10:05:32Z</time>
      </trkpt>
      <trkpt lat="43.97876" lon="5.08725">
        <ele>226.0471191</ele>
        <time>2016-01-23T10:05:34Z</time>
      </trkpt>
      <trkpt lat="43.97886" lon="5.08731">
        <ele>225.5665283</ele>
        <time>2016-01-23T10:05:37Z</time>
      </trkpt>
      <trkpt lat="43.97898" lon="5.08739">
        <ele>225.0859375</ele>
        <time>2016-01-23T10:05:40Z</time>
      </trkpt>
      <trkpt lat="43.97903" lon="5.08739">
        <ele>224.1245117</ele>
        <time>2016-01-23T10:05:42Z</time>
      </trkpt>
      <trkpt lat="43.97909" lon="5.08747">
        <ele>222.6824951</ele>
        <time>2016-01-23T10:05:45Z</time>
      </trkpt>
      <trkpt lat="43.97921" lon="5.08757">
        <ele>223.163208</ele>
        <time>2016-01-23T10:05:49Z</time>
      </trkpt>
      <trkpt lat="43.97928" lon="5.08769">
        <ele>222.2017822</ele>
        <time>2016-01-23T10:05:53Z</time>
      </trkpt>
      <trkpt lat="43.97932" lon="5.08789">
        <ele>223.163208</ele>
        <time>2016-01-23T10:05:58Z</time>
      </trkpt>
      <trkpt lat="43.97946" lon="5.08797">
        <ele>220.7598877</ele>
        <time>2016-01-23T10:06:04Z</time>
      </trkpt>
      <trkpt lat="43.9796" lon="5.08794">
        <ele>219.798584</ele>
        <time>2016-01-23T10:06:07Z</time>
      </trkpt>
      <trkpt lat="43.97969" lon="5.08787">
        <ele>216.43396</ele>
        <time>2016-01-23T10:06:10Z</time>
      </trkpt>
      <trkpt lat="43.97995" lon="5.08782">
        <ele>210.1854248</ele>
        <time>2016-01-23T10:06:18Z</time>
      </trkpt>
      <trkpt lat="43.98002" lon="5.08774">
        <ele>211.6274414</ele>
        <time>2016-01-23T10:06:20Z</time>
      </trkpt>
      <trkpt lat="43.98018" lon="5.08762">
        <ele>211.1467285</ele>
        <time>2016-01-23T10:06:23Z</time>
      </trkpt>
      <trkpt lat="43.98039" lon="5.0876">
        <ele>209.704834</ele>
        <time>2016-01-23T10:06:26Z</time>
      </trkpt>
      <trkpt lat="43.98063" lon="5.08769">
        <ele>208.7434082</ele>
        <time>2016-01-23T10:06:30Z</time>
      </trkpt>
      <trkpt lat="43.98126" lon="5.08819">
        <ele>205.8594971</ele>
        <time>2016-01-23T10:06:43Z</time>
      </trkpt>
      <trkpt lat="43.98133" lon="5.0882">
        <ele>204.8980713</ele>
        <time>2016-01-23T10:06:45Z</time>
      </trkpt>
      <trkpt lat="43.98144" lon="5.08837">
        <ele>205.8594971</ele>
        <time>2016-01-23T10:06:50Z</time>
      </trkpt>
      <trkpt lat="43.98146" lon="5.0888">
        <ele>210.6660156</ele>
        <time>2016-01-23T10:06:58Z</time>
      </trkpt>
      <trkpt lat="43.98146" lon="5.08883">
        <ele>211.6274414</ele>
        <time>2016-01-23T10:06:59Z</time>
      </trkpt>
      <trkpt lat="43.98143" lon="5.08924">
        <ele>218.3565674</ele>
        <time>2016-01-23T10:07:10Z</time>
      </trkpt>
      <trkpt lat="43.98134" lon="5.08945">
        <ele>220.2791748</ele>
        <time>2016-01-23T10:07:17Z</time>
      </trkpt>
      <trkpt lat="43.98132" lon="5.08953">
        <ele>220.2791748</ele>
        <time>2016-01-23T10:07:19Z</time>
      </trkpt>
      <trkpt lat="43.98131" lon="5.08961">
        <ele>220.7598877</ele>
        <time>2016-01-23T10:07:21Z</time>
      </trkpt>
      <trkpt lat="43.98131" lon="5.08967">
        <ele>221.2406006</ele>
        <time>2016-01-23T10:07:23Z</time>
      </trkpt>
      <trkpt lat="43.98128" lon="5.0898">
        <ele>222.6824951</ele>
        <time>2016-01-23T10:07:28Z</time>
      </trkpt>
      <trkpt lat="43.98124" lon="5.08988">
        <ele>222.6824951</ele>
        <time>2016-01-23T10:07:42Z</time>
      </trkpt>
      <trkpt lat="43.98121" lon="5.08997">
        <ele>222.6824951</ele>
        <time>2016-01-23T10:09:09Z</time>
      </trkpt>
      <trkpt lat="43.98121" lon="5.09024">
        <ele>223.163208</ele>
        <time>2016-01-23T10:09:17Z</time>
      </trkpt>
      <trkpt lat="43.98121" lon="5.09027">
        <ele>223.6437988</ele>
        <time>2016-01-23T10:09:18Z</time>
      </trkpt>
      <trkpt lat="43.98117" lon="5.09051">
        <ele>221.2406006</ele>
        <time>2016-01-23T10:09:23Z</time>
      </trkpt>
      <trkpt lat="43.98112" lon="5.09081">
        <ele>220.7598877</ele>
        <time>2016-01-23T10:09:31Z</time>
      </trkpt>
      <trkpt lat="43.98121" lon="5.0909">
        <ele>218.3565674</ele>
        <time>2016-01-23T10:09:38Z</time>
      </trkpt>
      <trkpt lat="43.98143" lon="5.09089">
        <ele>216.43396</ele>
        <time>2016-01-23T10:09:48Z</time>
      </trkpt>
      <trkpt lat="43.98171" lon="5.09079">
        <ele>214.9919434</ele>
        <time>2016-01-23T10:10:01Z</time>
      </trkpt>
      <trkpt lat="43.9819" lon="5.09069">
        <ele>212.588623</ele>
        <time>2016-01-23T10:10:06Z</time>
      </trkpt>
      <trkpt lat="43.98205" lon="5.09073">
        <ele>210.1854248</ele>
        <time>2016-01-23T10:10:10Z</time>
      </trkpt>
      <trkpt lat="43.98252" lon="5.0909">
        <ele>211.1467285</ele>
        <time>2016-01-23T10:10:24Z</time>
      </trkpt>
      <trkpt lat="43.98274" lon="5.09077">
        <ele>212.588623</ele>
        <time>2016-01-23T10:10:33Z</time>
      </trkpt>
      <trkpt lat="43.98304" lon="5.09036">
        <ele>215.9532471</ele>
        <time>2016-01-23T10:10:47Z</time>
      </trkpt>
      <trkpt lat="43.98325" lon="5.0902">
        <ele>217.3953857</ele>
        <time>2016-01-23T10:10:58Z</time>
      </trkpt>
      <trkpt lat="43.98336" lon="5.09013">
        <ele>218.3565674</ele>
        <time>2016-01-23T10:11:07Z</time>
      </trkpt>
      <trkpt lat="43.98336" lon="5.09012">
        <ele>218.3565674</ele>
        <time>2016-01-23T10:11:10Z</time>
      </trkpt>
      <trkpt lat="43.98347" lon="5.09008">
        <ele>212.588623</ele>
        <time>2016-01-23T10:11:16Z</time>
      </trkpt>
      <trkpt lat="43.98363" lon="5.09">
        <ele>209.2241211</ele>
        <time>2016-01-23T10:11:21Z</time>
      </trkpt>
      <trkpt lat="43.98373" lon="5.08991">
        <ele>206.8206787</ele>
        <time>2016-01-23T10:11:24Z</time>
      </trkpt>
      <trkpt lat="43.98375" lon="5.08985">
        <ele>205.8594971</ele>
        <time>2016-01-23T10:11:27Z</time>
      </trkpt>
      <trkpt lat="43.98392" lon="5.08951">
        <ele>202.494873</ele>
        <time>2016-01-23T10:11:32Z</time>
      </trkpt>
      <trkpt lat="43.98413" lon="5.08921">
        <ele>202.0142822</ele>
        <time>2016-01-23T10:11:37Z</time>
      </trkpt>
      <trkpt lat="43.98427" lon="5.08913">
        <ele>200.5722656</ele>
        <time>2016-01-23T10:11:41Z</time>
      </trkpt>
      <trkpt lat="43.98438" lon="5.08916">
        <ele>198.1689453</ele>
        <time>2016-01-23T10:11:45Z</time>
      </trkpt>
      <trkpt lat="43.98443" lon="5.08914">
        <ele>197.6882324</ele>
        <time>2016-01-23T10:11:47Z</time>
      </trkpt>
      <trkpt lat="43.98467" lon="5.08877">
        <ele>188.5557861</ele>
        <time>2016-01-23T10:11:55Z</time>
      </trkpt>
      <trkpt lat="43.98472" lon="5.08866">
        <ele>184.2298584</ele>
        <time>2016-01-23T10:11:58Z</time>
      </trkpt>
      <trkpt lat="43.98492" lon="5.08866">
        <ele>178.4619141</ele>
        <time>2016-01-23T10:12:05Z</time>
      </trkpt>
      <trkpt lat="43.98498" lon="5.08849">
        <ele>174.6165771</ele>
        <time>2016-01-23T10:12:12Z</time>
      </trkpt>
      <trkpt lat="43.98501" lon="5.08842">
        <ele>173.1746826</ele>
        <time>2016-01-23T10:12:14Z</time>
      </trkpt>
      <trkpt lat="43.98529" lon="5.08816">
        <ele>170.2906494</ele>
        <time>2016-01-23T10:12:22Z</time>
      </trkpt>
      <trkpt lat="43.98535" lon="5.088">
        <ele>170.2906494</ele>
        <time>2016-01-23T10:12:26Z</time>
      </trkpt>
      <trkpt lat="43.98539" lon="5.08798">
        <ele>169.8100586</ele>
        <time>2016-01-23T10:12:28Z</time>
      </trkpt>
      <trkpt lat="43.98545" lon="5.08789">
        <ele>170.2906494</ele>
        <time>2016-01-23T10:12:31Z</time>
      </trkpt>
      <trkpt lat="43.98544" lon="5.08772">
        <ele>173.1746826</ele>
        <time>2016-01-23T10:12:37Z</time>
      </trkpt>
      <trkpt lat="43.98538" lon="5.08766">
        <ele>174.1358643</ele>
        <time>2016-01-23T10:12:46Z</time>
      </trkpt>
      <trkpt lat="43.98533" lon="5.08762">
        <ele>174.6165771</ele>
        <time>2016-01-23T10:12:59Z</time>
      </trkpt>
      <trkpt lat="43.98533" lon="5.08762">
        <ele>174.6165771</ele>
        <time>2016-01-23T10:13:15Z</time>
      </trkpt>
      <trkpt lat="43.98525" lon="5.08751">
        <ele>176.0585938</ele>
        <time>2016-01-23T10:13:21Z</time>
      </trkpt>
      <trkpt lat="43.98489" lon="5.08702">
        <ele>177.9812012</ele>
        <time>2016-01-23T10:13:36Z</time>
      </trkpt>
      <trkpt lat="43.98484" lon="5.08685">
        <ele>176.5393066</ele>
        <time>2016-01-23T10:13:40Z</time>
      </trkpt>
      <trkpt lat="43.98471" lon="5.08673">
        <ele>175.5778809</ele>
        <time>2016-01-23T10:13:44Z</time>
      </trkpt>
      <trkpt lat="43.98444" lon="5.08648">
        <ele>175.09729</ele>
        <time>2016-01-23T10:13:51Z</time>
      </trkpt>
      <trkpt lat="43.9841" lon="5.08628">
        <ele>174.6165771</ele>
        <time>2016-01-23T10:13:58Z</time>
      </trkpt>
      <trkpt lat="43.98389" lon="5.08606">
        <ele>174.1358643</ele>
        <time>2016-01-23T10:14:03Z</time>
      </trkpt>
      <trkpt lat="43.98376" lon="5.0859">
        <ele>173.1746826</ele>
        <time>2016-01-23T10:14:08Z</time>
      </trkpt>
      <trkpt lat="43.98381" lon="5.08574">
        <ele>172.2132568</ele>
        <time>2016-01-23T10:14:14Z</time>
      </trkpt>
      <trkpt lat="43.98403" lon="5.08551">
        <ele>170.7713623</ele>
        <time>2016-01-23T10:14:21Z</time>
      </trkpt>
      <trkpt lat="43.98407" lon="5.08549">
        <ele>171.2520752</ele>
        <time>2016-01-23T10:14:22Z</time>
      </trkpt>
      <trkpt lat="43.98412" lon="5.0854">
        <ele>173.1746826</ele>
        <time>2016-01-23T10:14:27Z</time>
      </trkpt>
      <trkpt lat="43.98432" lon="5.08531">
        <ele>175.09729</ele>
        <time>2016-01-23T10:14:37Z</time>
      </trkpt>
      <trkpt lat="43.98438" lon="5.08528">
        <ele>173.6552734</ele>
        <time>2016-01-23T10:14:40Z</time>
      </trkpt>
      <trkpt lat="43.98444" lon="5.08527">
        <ele>173.1746826</ele>
        <time>2016-01-23T10:14:42Z</time>
      </trkpt>
      <trkpt lat="43.98459" lon="5.08508">
        <ele>173.6552734</ele>
        <time>2016-01-23T10:14:49Z</time>
      </trkpt>
      <trkpt lat="43.98464" lon="5.08499">
        <ele>173.6552734</ele>
        <time>2016-01-23T10:14:52Z</time>
      </trkpt>
      <trkpt lat="43.98472" lon="5.08498">
        <ele>170.7713623</ele>
        <time>2016-01-23T10:14:55Z</time>
      </trkpt>
      <trkpt lat="43.98484" lon="5.08494">
        <ele>167.8873291</ele>
        <time>2016-01-23T10:15:01Z</time>
      </trkpt>
      <trkpt lat="43.98486" lon="5.0848">
        <ele>165.9647217</ele>
        <time>2016-01-23T10:15:05Z</time>
      </trkpt>
      <trkpt lat="43.98484" lon="5.08466">
        <ele>165.9647217</ele>
        <time>2016-01-23T10:15:08Z</time>
      </trkpt>
      <trkpt lat="43.98484" lon="5.08438">
        <ele>165.4841309</ele>
        <time>2016-01-23T10:15:14Z</time>
      </trkpt>
      <trkpt lat="43.9849" lon="5.08414">
        <ele>165.4841309</ele>
        <time>2016-01-23T10:15:18Z</time>
      </trkpt>
      <trkpt lat="43.98484" lon="5.08396">
        <ele>166.4453125</ele>
        <time>2016-01-23T10:15:21Z</time>
      </trkpt>
      <trkpt lat="43.98474" lon="5.0838">
        <ele>166.4453125</ele>
        <time>2016-01-23T10:15:24Z</time>
      </trkpt>
      <trkpt lat="43.98471" lon="5.08365">
        <ele>164.5227051</ele>
        <time>2016-01-23T10:15:28Z</time>
      </trkpt>
      <trkpt lat="43.98466" lon="5.08334">
        <ele>161.638916</ele>
        <time>2016-01-23T10:15:34Z</time>
      </trkpt>
      <trkpt lat="43.98467" lon="5.08328">
        <ele>161.638916</ele>
        <time>2016-01-23T10:15:35Z</time>
      </trkpt>
      <trkpt lat="43.9849" lon="5.08293">
        <ele>161.1582031</ele>
        <time>2016-01-23T10:15:43Z</time>
      </trkpt>
      <trkpt lat="43.98509" lon="5.08258">
        <ele>157.3128662</ele>
        <time>2016-01-23T10:15:50Z</time>
      </trkpt>
      <trkpt lat="43.98511" lon="5.08254">
        <ele>156.3515625</ele>
        <time>2016-01-23T10:15:51Z</time>
      </trkpt>
      <trkpt lat="43.98496" lon="5.08222">
        <ele>157.3128662</ele>
        <time>2016-01-23T10:15:58Z</time>
      </trkpt>
      <trkpt lat="43.98486" lon="5.08208">
        <ele>154.4289551</ele>
        <time>2016-01-23T10:16:02Z</time>
      </trkpt>
      <trkpt lat="43.98468" lon="5.08178">
        <ele>152.5063477</ele>
        <time>2016-01-23T10:16:09Z</time>
      </trkpt>
      <trkpt lat="43.98454" lon="5.0817">
        <ele>151.064209</ele>
        <time>2016-01-23T10:16:15Z</time>
      </trkpt>
      <trkpt lat="43.98442" lon="5.08203">
        <ele>152.0257568</ele>
        <time>2016-01-23T10:16:23Z</time>
      </trkpt>
      <trkpt lat="43.98433" lon="5.08222">
        <ele>153.9483643</ele>
        <time>2016-01-23T10:16:28Z</time>
      </trkpt>
      <trkpt lat="43.98433" lon="5.08238">
        <ele>154.4289551</ele>
        <time>2016-01-23T10:16:32Z</time>
      </trkpt>
      <trkpt lat="43.98423" lon="5.08263">
        <ele>155.8709717</ele>
        <time>2016-01-23T10:16:40Z</time>
      </trkpt>
      <trkpt lat="43.98422" lon="5.0827">
        <ele>155.8709717</ele>
        <time>2016-01-23T10:16:42Z</time>
      </trkpt>
      <trkpt lat="43.98399" lon="5.0829">
        <ele>157.7935791</ele>
        <time>2016-01-23T10:16:51Z</time>
      </trkpt>
      <trkpt lat="43.98395" lon="5.08303">
        <ele>158.7547607</ele>
        <time>2016-01-23T10:16:55Z</time>
      </trkpt>
      <trkpt lat="43.98385" lon="5.08317">
        <ele>160.1968994</ele>
        <time>2016-01-23T10:17:00Z</time>
      </trkpt>
      <trkpt lat="43.9838" lon="5.0833">
        <ele>161.1582031</ele>
        <time>2016-01-23T10:17:04Z</time>
      </trkpt>
      <trkpt lat="43.98369" lon="5.08352">
        <ele>160.1968994</ele>
        <time>2016-01-23T10:17:08Z</time>
      </trkpt>
      <trkpt lat="43.98359" lon="5.08363">
        <ele>160.6774902</ele>
        <time>2016-01-23T10:17:13Z</time>
      </trkpt>
      <trkpt lat="43.98341" lon="5.08397">
        <ele>159.2354736</ele>
        <time>2016-01-23T10:17:24Z</time>
      </trkpt>
      <trkpt lat="43.98339" lon="5.08403">
        <ele>159.2354736</ele>
        <time>2016-01-23T10:17:25Z</time>
      </trkpt>
      <trkpt lat="43.98319" lon="5.08424">
        <ele>160.6774902</ele>
        <time>2016-01-23T10:17:33Z</time>
      </trkpt>
      <trkpt lat="43.98302" lon="5.08445">
        <ele>157.7935791</ele>
        <time>2016-01-23T10:17:39Z</time>
      </trkpt>
      <trkpt lat="43.983" lon="5.08454">
        <ele>155.8709717</ele>
        <time>2016-01-23T10:17:43Z</time>
      </trkpt>
      <trkpt lat="43.98292" lon="5.08467">
        <ele>158.2741699</ele>
        <time>2016-01-23T10:17:49Z</time>
      </trkpt>
      <trkpt lat="43.98261" lon="5.08471">
        <ele>158.2741699</ele>
        <time>2016-01-23T10:17:56Z</time>
      </trkpt>
      <trkpt lat="43.98248" lon="5.08464">
        <ele>157.3128662</ele>
        <time>2016-01-23T10:17:59Z</time>
      </trkpt>
      <trkpt lat="43.98227" lon="5.08425">
        <ele>160.1968994</ele>
        <time>2016-01-23T10:18:06Z</time>
      </trkpt>
      <trkpt lat="43.9821" lon="5.08384">
        <ele>161.638916</ele>
        <time>2016-01-23T10:18:17Z</time>
      </trkpt>
      <trkpt lat="43.98206" lon="5.08377">
        <ele>161.638916</ele>
        <time>2016-01-23T10:18:21Z</time>
      </trkpt>
      <trkpt lat="43.98216" lon="5.08371">
        <ele>161.638916</ele>
        <time>2016-01-23T10:18:28Z</time>
      </trkpt>
      <trkpt lat="43.9823" lon="5.08383">
        <ele>159.7161865</ele>
        <time>2016-01-23T10:18:32Z</time>
      </trkpt>
      <trkpt lat="43.98241" lon="5.08385">
        <ele>158.2741699</ele>
        <time>2016-01-23T10:18:35Z</time>
      </trkpt>
      <trkpt lat="43.98249" lon="5.08388">
        <ele>156.8321533</ele>
        <time>2016-01-23T10:18:39Z</time>
      </trkpt>
      <trkpt lat="43.98278" lon="5.08367">
        <ele>152.9869385</ele>
        <time>2016-01-23T10:18:48Z</time>
      </trkpt>
      <trkpt lat="43.98293" lon="5.08358">
        <ele>151.064209</ele>
        <time>2016-01-23T10:18:51Z</time>
      </trkpt>
      <trkpt lat="43.98316" lon="5.08337">
        <ele>148.6610107</ele>
        <time>2016-01-23T10:18:58Z</time>
      </trkpt>
      <trkpt lat="43.98329" lon="5.08321">
        <ele>147.699707</ele>
        <time>2016-01-23T10:19:02Z</time>
      </trkpt>
      <trkpt lat="43.98338" lon="5.0829">
        <ele>146.2578125</ele>
        <time>2016-01-23T10:19:08Z</time>
      </trkpt>
      <trkpt lat="43.98351" lon="5.08248">
        <ele>144.8157959</ele>
        <time>2016-01-23T10:19:14Z</time>
      </trkpt>
      <trkpt lat="43.98355" lon="5.0824">
        <ele>144.3352051</ele>
        <time>2016-01-23T10:19:16Z</time>
      </trkpt>
      <trkpt lat="43.98362" lon="5.08219">
        <ele>141.4510498</ele>
        <time>2016-01-23T10:19:24Z</time>
      </trkpt>
      <trkpt lat="43.98368" lon="5.08212">
        <ele>140.970459</ele>
        <time>2016-01-23T10:19:26Z</time>
      </trkpt>
      <trkpt lat="43.98384" lon="5.08173">
        <ele>139.5284424</ele>
        <time>2016-01-23T10:19:34Z</time>
      </trkpt>
      <trkpt lat="43.98396" lon="5.08144">
        <ele>139.0478516</ele>
        <time>2016-01-23T10:19:40Z</time>
      </trkpt>
      <trkpt lat="43.98407" lon="5.08107">
        <ele>138.0865479</ele>
        <time>2016-01-23T10:19:48Z</time>
      </trkpt>
      <trkpt lat="43.98419" lon="5.08077">
        <ele>136.1639404</ele>
        <time>2016-01-23T10:19:55Z</time>
      </trkpt>
      <trkpt lat="43.98435" lon="5.0804">
        <ele>135.2025146</ele>
        <time>2016-01-23T10:20:04Z</time>
      </trkpt>
      <trkpt lat="43.9845" lon="5.07996">
        <ele>135.2025146</ele>
        <time>2016-01-23T10:20:12Z</time>
      </trkpt>
      <trkpt lat="43.98442" lon="5.07958">
        <ele>136.1639404</ele>
        <time>2016-01-23T10:20:20Z</time>
      </trkpt>
      <trkpt lat="43.98443" lon="5.07953">
        <ele>137.1252441</ele>
        <time>2016-01-23T10:20:22Z</time>
      </trkpt>
      <trkpt lat="43.98443" lon="5.0792">
        <ele>139.5284424</ele>
        <time>2016-01-23T10:20:30Z</time>
      </trkpt>
      <trkpt lat="43.98445" lon="5.07903">
        <ele>139.5284424</ele>
        <time>2016-01-23T10:20:33Z</time>
      </trkpt>
      <trkpt lat="43.98445" lon="5.0787">
        <ele>140.4898682</ele>
        <time>2016-01-23T10:20:38Z</time>
      </trkpt>
      <trkpt lat="43.98452" lon="5.07815">
        <ele>141.9317627</ele>
        <time>2016-01-23T10:20:47Z</time>
      </trkpt>
      <trkpt lat="43.9846" lon="5.07786">
        <ele>141.9317627</ele>
        <time>2016-01-23T10:20:54Z</time>
      </trkpt>
      <trkpt lat="43.98468" lon="5.07755">
        <ele>141.9317627</ele>
        <time>2016-01-23T10:21:00Z</time>
      </trkpt>
      <trkpt lat="43.98471" lon="5.07727">
        <ele>139.0478516</ele>
        <time>2016-01-23T10:21:06Z</time>
      </trkpt>
      <trkpt lat="43.9847" lon="5.07712">
        <ele>138.0865479</ele>
        <time>2016-01-23T10:21:09Z</time>
      </trkpt>
      <trkpt lat="43.98466" lon="5.07703">
        <ele>137.605835</ele>
        <time>2016-01-23T10:21:11Z</time>
      </trkpt>
      <trkpt lat="43.98467" lon="5.07686">
        <ele>134.7219238</ele>
        <time>2016-01-23T10:21:15Z</time>
      </trkpt>
      <trkpt lat="43.98475" lon="5.0767">
        <ele>130.3959961</ele>
        <time>2016-01-23T10:21:23Z</time>
      </trkpt>
      <trkpt lat="43.98481" lon="5.07662">
        <ele>130.3959961</ele>
        <time>2016-01-23T10:21:33Z</time>
      </trkpt>
      <trkpt lat="43.98498" lon="5.07637">
        <ele>130.3959961</ele>
        <time>2016-01-23T10:21:45Z</time>
      </trkpt>
      <trkpt lat="43.98525" lon="5.07594">
        <ele>127.9925537</ele>
        <time>2016-01-23T10:21:56Z</time>
      </trkpt>
      <trkpt lat="43.98562" lon="5.07549">
        <ele>121.7441406</ele>
        <time>2016-01-23T10:22:08Z</time>
      </trkpt>
      <trkpt lat="43.98616" lon="5.07489">
        <ele>118.8601074</ele>
        <time>2016-01-23T10:22:23Z</time>
      </trkpt>
      <trkpt lat="43.98626" lon="5.07476">
        <ele>118.8601074</ele>
        <time>2016-01-23T10:22:26Z</time>
      </trkpt>
      <trkpt lat="43.98684" lon="5.07419">
        <ele>117.8988037</ele>
        <time>2016-01-23T10:22:42Z</time>
      </trkpt>
      <trkpt lat="43.98724" lon="5.07373">
        <ele>117.4182129</ele>
        <time>2016-01-23T10:22:54Z</time>
      </trkpt>
      <trkpt lat="43.98733" lon="5.07379">
        <ele>116.4567871</ele>
        <time>2016-01-23T10:22:58Z</time>
      </trkpt>
      <trkpt lat="43.98764" lon="5.0743">
        <ele>117.4182129</ele>
        <time>2016-01-23T10:23:11Z</time>
      </trkpt>
      <trkpt lat="43.98797" lon="5.07474">
        <ele>115.0148926</ele>
        <time>2016-01-23T10:23:25Z</time>
      </trkpt>
      <trkpt lat="43.98805" lon="5.07486">
        <ele>114.5341797</ele>
        <time>2016-01-23T10:23:31Z</time>
      </trkpt>
      <trkpt lat="43.9882" lon="5.07479">
        <ele>117.4182129</ele>
        <time>2016-01-23T10:23:37Z</time>
      </trkpt>
      <trkpt lat="43.98859" lon="5.07447">
        <ele>119.8214111</ele>
        <time>2016-01-23T10:23:50Z</time>
      </trkpt>
      <trkpt lat="43.98901" lon="5.07413">
        <ele>120.7828369</ele>
        <time>2016-01-23T10:24:03Z</time>
      </trkpt>
      <trkpt lat="43.98923" lon="5.07393">
        <ele>121.2635498</ele>
        <time>2016-01-23T10:24:12Z</time>
      </trkpt>
      <trkpt lat="43.98944" lon="5.07382">
        <ele>121.2635498</ele>
        <time>2016-01-23T10:24:18Z</time>
      </trkpt>
      <trkpt lat="43.98948" lon="5.07356">
        <ele>119.8214111</ele>
        <time>2016-01-23T10:24:23Z</time>
      </trkpt>
      <trkpt lat="43.98947" lon="5.07345">
        <ele>119.3408203</ele>
        <time>2016-01-23T10:24:25Z</time>
      </trkpt>
      <trkpt lat="43.98941" lon="5.07319">
        <ele>119.8214111</ele>
        <time>2016-01-23T10:24:30Z</time>
      </trkpt>
      <trkpt lat="43.98937" lon="5.07299">
        <ele>119.8214111</ele>
        <time>2016-01-23T10:24:34Z</time>
      </trkpt>
      <trkpt lat="43.98927" lon="5.07236">
        <ele>120.302124</ele>
        <time>2016-01-23T10:24:47Z</time>
      </trkpt>
      <trkpt lat="43.98926" lon="5.07232">
        <ele>119.8214111</ele>
        <time>2016-01-23T10:24:48Z</time>
      </trkpt>
      <trkpt lat="43.98921" lon="5.07221">
        <ele>121.2635498</ele>
        <time>2016-01-23T10:24:52Z</time>
      </trkpt>
      <trkpt lat="43.98916" lon="5.07191">
        <ele>118.8601074</ele>
        <time>2016-01-23T10:25:03Z</time>
      </trkpt>
      <trkpt lat="43.98915" lon="5.07182">
        <ele>117.8988037</ele>
        <time>2016-01-23T10:25:29Z</time>
      </trkpt>
      <trkpt lat="43.98909" lon="5.07173">
        <ele>116.4567871</ele>
        <time>2016-01-23T10:25:34Z</time>
      </trkpt>
      <trkpt lat="43.98913" lon="5.07162">
        <ele>114.5341797</ele>
        <time>2016-01-23T10:25:38Z</time>
      </trkpt>
      <trkpt lat="43.98911" lon="5.07138">
        <ele>112.1309814</ele>
        <time>2016-01-23T10:25:43Z</time>
      </trkpt>
      <trkpt lat="43.98903" lon="5.07128">
        <ele>111.6502686</ele>
        <time>2016-01-23T10:25:46Z</time>
      </trkpt>
      <trkpt lat="43.98903" lon="5.07114">
        <ele>110.6888428</ele>
        <time>2016-01-23T10:25:49Z</time>
      </trkpt>
      <trkpt lat="43.98904" lon="5.07099">
        <ele>109.7276611</ele>
        <time>2016-01-23T10:25:53Z</time>
      </trkpt>
      <trkpt lat="43.98911" lon="5.07089">
        <ele>108.7662354</ele>
        <time>2016-01-23T10:25:57Z</time>
      </trkpt>
      <trkpt lat="43.98918" lon="5.07083">
        <ele>106.8436279</ele>
        <time>2016-01-23T10:26:06Z</time>
      </trkpt>
      <trkpt lat="43.9892" lon="5.0708">
        <ele>107.3243408</ele>
        <time>2016-01-23T10:26:15Z</time>
      </trkpt>
      <trkpt lat="43.98934" lon="5.07073">
        <ele>106.8436279</ele>
        <time>2016-01-23T10:26:26Z</time>
      </trkpt>
      <trkpt lat="43.98971" lon="5.07057">
        <ele>105.4017334</ele>
        <time>2016-01-23T10:26:37Z</time>
      </trkpt>
      <trkpt lat="43.99025" lon="5.07024">
        <ele>103.4790039</ele>
        <time>2016-01-23T10:26:52Z</time>
      </trkpt>
      <trkpt lat="43.99036" lon="5.07013">
        <ele>103.4790039</ele>
        <time>2016-01-23T10:26:55Z</time>
      </trkpt>
      <trkpt lat="43.99048" lon="5.06992">
        <ele>102.5177002</ele>
        <time>2016-01-23T10:26:59Z</time>
      </trkpt>
      <trkpt lat="43.99079" lon="5.06919">
        <ele>101.0756836</ele>
        <time>2016-01-23T10:27:12Z</time>
      </trkpt>
      <trkpt lat="43.99116" lon="5.06851">
        <ele>99.6337891</ele>
        <time>2016-01-23T10:27:25Z</time>
      </trkpt>
      <trkpt lat="43.99156" lon="5.06809">
        <ele>99.6337891</ele>
        <time>2016-01-23T10:27:37Z</time>
      </trkpt>
      <trkpt lat="43.99202" lon="5.0675">
        <ele>97.7111816</ele>
        <time>2016-01-23T10:27:51Z</time>
      </trkpt>
      <trkpt lat="43.99257" lon="5.06681">
        <ele>95.7884521</ele>
        <time>2016-01-23T10:28:07Z</time>
      </trkpt>
      <trkpt lat="43.99267" lon="5.06666">
        <ele>95.3077393</ele>
        <time>2016-01-23T10:28:10Z</time>
      </trkpt>
      <trkpt lat="43.99268" lon="5.06632">
        <ele>94.3465576</ele>
        <time>2016-01-23T10:28:18Z</time>
      </trkpt>
      <trkpt lat="43.99264" lon="5.0663">
        <ele>94.3465576</ele>
        <time>2016-01-23T10:28:19Z</time>
      </trkpt>
      <trkpt lat="43.99229" lon="5.06571">
        <ele>95.7884521</ele>
        <time>2016-01-23T10:28:34Z</time>
      </trkpt>
      <trkpt lat="43.99189" lon="5.06484">
        <ele>98.1918945</ele>
        <time>2016-01-23T10:28:54Z</time>
      </trkpt>
      <trkpt lat="43.99154" lon="5.06424">
        <ele>100.5950928</ele>
        <time>2016-01-23T10:29:09Z</time>
      </trkpt>
      <trkpt lat="43.99123" lon="5.06375">
        <ele>101.5563965</ele>
        <time>2016-01-23T10:29:22Z</time>
      </trkpt>
      <trkpt lat="43.99101" lon="5.06331">
        <ele>103.9597168</ele>
        <time>2016-01-23T10:29:34Z</time>
      </trkpt>
      <trkpt lat="43.99086" lon="5.06286">
        <ele>106.3630371</ele>
        <time>2016-01-23T10:29:47Z</time>
      </trkpt>
      <trkpt lat="43.99067" lon="5.06231">
        <ele>110.208252</ele>
        <time>2016-01-23T10:30:03Z</time>
      </trkpt>
      <trkpt lat="43.99054" lon="5.06189">
        <ele>112.1309814</ele>
        <time>2016-01-23T10:30:16Z</time>
      </trkpt>
      <trkpt lat="43.9905" lon="5.06148">
        <ele>114.5341797</ele>
        <time>2016-01-23T10:30:28Z</time>
      </trkpt>
      <trkpt lat="43.99055" lon="5.06098">
        <ele>116.9375</ele>
        <time>2016-01-23T10:30:40Z</time>
      </trkpt>
      <trkpt lat="43.99064" lon="5.06034">
        <ele>116.4567871</ele>
        <time>2016-01-23T10:30:53Z</time>
      </trkpt>
      <trkpt lat="43.99066" lon="5.06016">
        <ele>115.9761963</ele>
        <time>2016-01-23T10:30:56Z</time>
      </trkpt>
      <trkpt lat="43.99055" lon="5.05932">
        <ele>111.1695557</ele>
        <time>2016-01-23T10:31:08Z</time>
      </trkpt>
      <trkpt lat="43.99048" lon="5.05817">
        <ele>106.3630371</ele>
        <time>2016-01-23T10:31:18Z</time>
      </trkpt>
      <trkpt lat="43.99065" lon="5.05735">
        <ele>106.8436279</ele>
        <time>2016-01-23T10:31:27Z</time>
      </trkpt>
      <trkpt lat="43.99071" lon="5.05695">
        <ele>106.8436279</ele>
        <time>2016-01-23T10:31:33Z</time>
      </trkpt>
      <trkpt lat="43.99068" lon="5.05632">
        <ele>107.3243408</ele>
        <time>2016-01-23T10:31:43Z</time>
      </trkpt>
      <trkpt lat="43.99068" lon="5.05584">
        <ele>108.2856445</ele>
        <time>2016-01-23T10:31:52Z</time>
      </trkpt>
      <trkpt lat="43.99067" lon="5.05565">
        <ele>109.7276611</ele>
        <time>2016-01-23T10:32:00Z</time>
      </trkpt>
      <trkpt lat="43.99061" lon="5.05556">
        <ele>108.2856445</ele>
        <time>2016-01-23T10:32:42Z</time>
      </trkpt>
      <trkpt lat="43.99059" lon="5.05556">
        <ele>107.8050537</ele>
        <time>2016-01-23T10:32:43Z</time>
      </trkpt>
      <trkpt lat="43.99023" lon="5.05575">
        <ele>105.4017334</ele>
        <time>2016-01-23T10:32:53Z</time>
      </trkpt>
      <trkpt lat="43.99016" lon="5.05586">
        <ele>104.4404297</ele>
        <time>2016-01-23T10:32:56Z</time>
      </trkpt>
      <trkpt lat="43.99018" lon="5.05616">
        <ele>103.9597168</ele>
        <time>2016-01-23T10:33:02Z</time>
      </trkpt>
      <trkpt lat="43.99037" lon="5.05614">
        <ele>103.9597168</ele>
        <time>2016-01-23T10:33:10Z</time>
      </trkpt>
      <trkpt lat="43.99039" lon="5.05613">
        <ele>103.9597168</ele>
        <time>2016-01-23T10:33:11Z</time>
      </trkpt>
      <trkpt lat="43.99045" lon="5.05614">
        <ele>103.9597168</ele>
        <time>2016-01-23T10:33:14Z</time>
      </trkpt>
      <trkpt lat="43.99058" lon="5.05611">
        <ele>104.9210205</ele>
        <time>2016-01-23T10:33:24Z</time>
      </trkpt>
      <trkpt lat="43.99057" lon="5.0561">
        <ele>104.4404297</ele>
        <time>2016-01-23T10:34:04Z</time>
      </trkpt>
      <trkpt lat="43.99057" lon="5.0561">
        <ele>104.4404297</ele>
        <time>2016-01-23T10:36:44Z</time>
      </trkpt>
    </trkseg>
  </trk>
</gpx>